Observation data for Castolon 1NW BBNP on 05/27/2019      Previous  Date  Next       Current Mesonet Observations  Soil Data  Daily Summary Page  Observations in Plain Language
KCA2 270500Z 13014KT 28/16 A2986 RMK A01 T02840161  RH  047%=      5-min Rain = 0
KCA2 270501Z 14014KT 28/16 A2986 RMK A01 T02840162  RH  048%=      5-min Rain = 0
KCA2 270502Z 14012KT 28/16 A2986 RMK A01 T02840162  RH  048%=      5-min Rain = 0
KCA2 270503Z 15008KT 28/16 A2987 RMK A01 T02840162  RH  048%=      5-min Rain = 0
KCA2 270504Z 14012KT 28/16 A2987 RMK A01 T02830162  RH  048%=      5-min Rain = 0
KCA2 270505Z 14009KT 28/16 A2987 RMK A01 T02830162  RH  048%=      5-min Rain = 0
KCA2 270506Z 15007KT 28/16 A2987 RMK A01 T02830162  RH  048%=      5-min Rain = 0
KCA2 270507Z 15009KT 28/16 A2987 RMK A01 T02820162  RH  048%=      5-min Rain = 0
KCA2 270508Z 15011KT 28/16 A2986 RMK A01 T02820162  RH  048%=      5-min Rain = 0
KCA2 270509Z 15009KT 28/16 A2987 RMK A01 T02820162  RH  048%=      5-min Rain = 0
KCA2 270510Z 15010KT 28/16 A2987 RMK A01 T02810162  RH  048%=      5-min Rain = 0
KCA2 270511Z 15010KT 28/16 A2987 RMK A01 T02810162  RH  048%=      5-min Rain = 0
KCA2 270512Z 15008KT 28/16 A2987 RMK A01 T02810162  RH  049%=      5-min Rain = 0
KCA2 270513Z 15009KT 28/16 A2987 RMK A01 T02800162  RH  049%=      5-min Rain = 0
KCA2 270514Z 15010KT 28/16 A2986 RMK A01 T02800163  RH  049%=      5-min Rain = 0
KCA2 270515Z 15010KT 28/16 A2986 RMK A01 T02800163  RH  049%=      5-min Rain = 0
KCA2 270516Z 15011KT 28/16 A2986 RMK A01 T02800163  RH  049%=      5-min Rain = 0
KCA2 270517Z 15011KT 28/16 A2986 RMK A01 T02800163  RH  049%=      5-min Rain = 0
KCA2 270518Z 15010KT 28/16 A2986 RMK A01 T02800163  RH  049%=      5-min Rain = 0
KCA2 270519Z 15010KT 28/16 A2986 RMK A01 T02790163  RH  049%=      5-min Rain = 0
KCA2 270520Z 15010KT 28/16 A2986 RMK A01 T02790164  RH  049%=      5-min Rain = 0
KCA2 270521Z 14009KT 28/16 A2986 RMK A01 T02790163  RH  049%=      5-min Rain = 0
KCA2 270522Z 14010KT 28/16 A2986 RMK A01 T02790163  RH  049%=      5-min Rain = 0
KCA2 270523Z 15008KT 28/16 A2986 RMK A01 T02790164  RH  049%=      5-min Rain = 0
KCA2 270524Z 14010KT 28/16 A2986 RMK A01 T02790164  RH  049%=      5-min Rain = 0
KCA2 270525Z 14010KT 28/16 A2986 RMK A01 T02790164  RH  050%=      5-min Rain = 0
KCA2 270526Z 15008KT 28/16 A2986 RMK A01 T02790164  RH  049%=      5-min Rain = 0
KCA2 270527Z 15012KT 28/16 A2986 RMK A01 T02790164  RH  050%=      5-min Rain = 0
KCA2 270528Z 15010KT 28/16 A2986 RMK A01 T02790164  RH  050%=      5-min Rain = 0
KCA2 270529Z 15011KT 28/16 A2986 RMK A01 T02790164  RH  050%=      5-min Rain = 0
KCA2 270530Z 15011KT 28/16 A2986 RMK A01 T02790164  RH  050%=      5-min Rain = 0
KCA2 270531Z 14011KT 28/16 A2986 RMK A01 T02790164  RH  050%=      5-min Rain = 0
KCA2 270532Z 16011KT 28/16 A2986 RMK A01 T02790164  RH  050%=      5-min Rain = 0
KCA2 270533Z 15010KT 28/16 A2986 RMK A01 T02790164  RH  050%=      5-min Rain = 0
KCA2 270534Z 15010KT 28/17 A2986 RMK A01 T02790165  RH  050%=      5-min Rain = 0
KCA2 270535Z 15010KT 28/16 A2986 RMK A01 T02790164  RH  050%=      5-min Rain = 0
KCA2 270536Z 16010KT 28/17 A2986 RMK A01 T02790165  RH  050%=      5-min Rain = 0
KCA2 270537Z 16008G13KT 28/16 A2986 RMK A01 T02790164  RH  050%=      5-min Rain = 0
KCA2 270538Z 16009KT 28/17 A2986 RMK A01 T02790165  RH  050%=      5-min Rain = 0
KCA2 270539Z 16010KT 28/16 A2986 RMK A01 T02790164  RH  050%=      5-min Rain = 0
KCA2 270540Z 16007KT 28/17 A2986 RMK A01 T02790165  RH  050%=      5-min Rain = 0
KCA2 270541Z 15008KT 28/16 A2986 RMK A01 T02790164  RH  050%=      5-min Rain = 0
KCA2 270542Z 16007KT 28/17 A2986 RMK A01 T02780165  RH  050%=      5-min Rain = 0
KCA2 270543Z 15008KT 28/17 A2986 RMK A01 T02780165  RH  050%=      5-min Rain = 0
KCA2 270544Z 15008KT 28/17 A2986 RMK A01 T02780165  RH  050%=      5-min Rain = 0
KCA2 270545Z 15009KT 28/16 A2986 RMK A01 T02780164  RH  050%=      5-min Rain = 0
KCA2 270546Z 15008KT 28/17 A2987 RMK A01 T02780165  RH  050%=      5-min Rain = 0
KCA2 270547Z 16007KT 28/16 A2987 RMK A01 T02780164  RH  050%=      5-min Rain = 0
KCA2 270548Z 16007KT 28/16 A2987 RMK A01 T02780164  RH  050%=      5-min Rain = 0
KCA2 270549Z 16009KT 28/16 A2987 RMK A01 T02770164  RH  050%=      5-min Rain = 0
KCA2 270550Z 16008KT 28/16 A2987 RMK A01 T02770164  RH  050%=      5-min Rain = 0
KCA2 270551Z 16006KT 28/16 A2987 RMK A01 T02770164  RH  050%=      5-min Rain = 0
KCA2 270552Z 16007KT 28/16 A2987 RMK A01 T02780164  RH  050%=      5-min Rain = 0
KCA2 270553Z 16006KT 28/16 A2987 RMK A01 T02770164  RH  050%=      5-min Rain = 0
KCA2 270554Z 17009KT 28/16 A2986 RMK A01 T02770164  RH  050%=      5-min Rain = 0
KCA2 270555Z 16007KT 28/16 A2986 RMK A01 T02780164  RH  050%=      5-min Rain = 0
KCA2 270556Z 16008KT 28/16 A2986 RMK A01 T02770164  RH  050%=      5-min Rain = 0
KCA2 270557Z 16008KT 28/16 A2986 RMK A01 T02780164  RH  050%=      5-min Rain = 0
KCA2 270558Z 16007KT 28/16 A2986 RMK A01 T02780164  RH  050%=      5-min Rain = 0
KCA2 270559Z 16007KT 28/16 A2986 RMK A01 T02780164  RH  050%=      5-min Rain = 0
KCA2 270600Z 15007KT 28/16 A2986 RMK A01 T02780164  RH  050%=      5-min Rain = 0
KCA2 270601Z 15008KT 28/16 A2986 RMK A01 T02780164  RH  050%=      5-min Rain = 0
KCA2 270602Z 15008KT 28/16 A2986 RMK A01 T02780163  RH  050%=      5-min Rain = 0
KCA2 270603Z 15007KT 28/16 A2986 RMK A01 T02780163  RH  050%=      5-min Rain = 0
KCA2 270604Z 16008KT 28/16 A2986 RMK A01 T02780163  RH  050%=      5-min Rain = 0
KCA2 270605Z 16008KT 28/16 A2986 RMK A01 T02780163  RH  050%=      5-min Rain = 0
KCA2 270606Z 16007KT 28/16 A2986 RMK A01 T02780163  RH  050%=      5-min Rain = 0
KCA2 270607Z 16007KT 28/16 A2986 RMK A01 T02780163  RH  050%=      5-min Rain = 0
KCA2 270608Z 16008KT 28/16 A2986 RMK A01 T02770163  RH  050%=      5-min Rain = 0
KCA2 270609Z 15007KT 28/16 A2986 RMK A01 T02770163  RH  050%=      5-min Rain = 0
KCA2 270610Z 15008KT 28/16 A2986 RMK A01 T02760163  RH  050%=      5-min Rain = 0
KCA2 270611Z 16007KT 28/16 A2986 RMK A01 T02760163  RH  050%=      5-min Rain = 0
KCA2 270612Z 16008KT 28/16 A2986 RMK A01 T02760163  RH  050%=      5-min Rain = 0
KCA2 270613Z 16008KT 28/16 A2986 RMK A01 T02760163  RH  050%=      5-min Rain = 0
KCA2 270614Z 16008KT 28/16 A2985 RMK A01 T02760162  RH  050%=      5-min Rain = 0
KCA2 270615Z 15009KT 28/16 A2985 RMK A01 T02750162  RH  050%=      5-min Rain = 0
KCA2 270616Z 15009KT 28/16 A2985 RMK A01 T02760162  RH  050%=      5-min Rain = 0
KCA2 270617Z 15008KT 28/16 A2985 RMK A01 T02760162  RH  050%=      5-min Rain = 0
KCA2 270618Z 16009KT 28/16 A2985 RMK A01 T02760162  RH  050%=      5-min Rain = 0
KCA2 270619Z 16007KT 28/16 A2985 RMK A01 T02760162  RH  050%=      5-min Rain = 0
KCA2 270620Z 15008KT 28/16 A2985 RMK A01 T02760162  RH  050%=      5-min Rain = 0
KCA2 270621Z 15008KT 28/16 A2985 RMK A01 T02760163  RH  050%=      5-min Rain = 0
KCA2 270622Z 15008KT 28/16 A2985 RMK A01 T02760163  RH  050%=      5-min Rain = 0
KCA2 270623Z 15009KT 28/16 A2985 RMK A01 T02760163  RH  050%=      5-min Rain = 0
KCA2 270624Z 15008KT 28/16 A2985 RMK A01 T02750162  RH  050%=      5-min Rain = 0
KCA2 270625Z 15007KT 28/16 A2985 RMK A01 T02760163  RH  050%=      5-min Rain = 0
KCA2 270626Z 15008KT 28/16 A2985 RMK A01 T02760163  RH  050%=      5-min Rain = 0
KCA2 270627Z 15007KT 28/16 A2985 RMK A01 T02760163  RH  050%=      5-min Rain = 0
KCA2 270628Z 15007KT 28/16 A2985 RMK A01 T02760163  RH  050%=      5-min Rain = 0
KCA2 270629Z 15009KT 28/16 A2985 RMK A01 T02760163  RH  050%=      5-min Rain = 0
KCA2 270630Z 15009KT 28/16 A2985 RMK A01 T02760164  RH  050%=      5-min Rain = 0
KCA2 270631Z 15008KT 28/16 A2985 RMK A01 T02750164  RH  050%=      5-min Rain = 0
KCA2 270632Z 15007KT 28/16 A2985 RMK A01 T02760164  RH  050%=      5-min Rain = 0
KCA2 270633Z 15008KT 28/16 A2985 RMK A01 T02750164  RH  051%=      5-min Rain = 0
KCA2 270634Z 15007KT 28/16 A2985 RMK A01 T02760164  RH  051%=      5-min Rain = 0
KCA2 270635Z 15007KT 28/16 A2985 RMK A01 T02760164  RH  051%=      5-min Rain = 0
KCA2 270636Z 15008KT 28/16 A2985 RMK A01 T02750164  RH  051%=      5-min Rain = 0
KCA2 270637Z 14008KT 28/17 A2985 RMK A01 T02750165  RH  051%=      5-min Rain = 0
KCA2 270638Z 15007KT 28/17 A2985 RMK A01 T02750165  RH  051%=      5-min Rain = 0
KCA2 270639Z 15007KT 28/16 A2985 RMK A01 T02750164  RH  051%=      5-min Rain = 0
KCA2 270640Z 14008KT 28/17 A2985 RMK A01 T02750165  RH  051%=      5-min Rain = 0
KCA2 270641Z 14007KT 28/17 A2985 RMK A01 T02750165  RH  051%=      5-min Rain = 0
KCA2 270642Z 14007KT 28/17 A2985 RMK A01 T02750165  RH  051%=      5-min Rain = 0
KCA2 270643Z 14007KT 28/17 A2985 RMK A01 T02750165  RH  051%=      5-min Rain = 0
KCA2 270644Z 14008KT 28/17 A2985 RMK A01 T02750165  RH  051%=      5-min Rain = 0
KCA2 270645Z 14008KT 28/17 A2984 RMK A01 T02750166  RH  051%=      5-min Rain = 0
KCA2 270646Z 14008KT 28/17 A2984 RMK A01 T02750166  RH  051%=      5-min Rain = 0
KCA2 270647Z 14008KT 28/17 A2984 RMK A01 T02750166  RH  051%=      5-min Rain = 0
KCA2 270648Z 14008KT 28/17 A2984 RMK A01 T02750166  RH  051%=      5-min Rain = 0
KCA2 270649Z 15008KT 28/17 A2984 RMK A01 T02750166  RH  051%=      5-min Rain = 0
KCA2 270650Z 14009KT 28/17 A2984 RMK A01 T02750166  RH  051%=      5-min Rain = 0
KCA2 270651Z 14009KT 28/17 A2984 RMK A01 T02750166  RH  051%=      5-min Rain = 0
KCA2 270652Z 14009KT 28/17 A2984 RMK A01 T02750166  RH  052%=      5-min Rain = 0
KCA2 270653Z 14009KT 28/17 A2984 RMK A01 T02750166  RH  051%=      5-min Rain = 0
KCA2 270654Z 14010KT 28/17 A2984 RMK A01 T02750166  RH  052%=      5-min Rain = 0
KCA2 270655Z 14008KT 28/17 A2984 RMK A01 T02750166  RH  052%=      5-min Rain = 0
KCA2 270656Z 14008KT 28/17 A2984 RMK A01 T02750167  RH  052%=      5-min Rain = 0
KCA2 270657Z 14009KT 28/17 A2984 RMK A01 T02750167  RH  052%=      5-min Rain = 0
KCA2 270658Z 14009KT 28/17 A2984 RMK A01 T02750167  RH  052%=      5-min Rain = 0
KCA2 270659Z 15008KT 28/17 A2984 RMK A01 T02750167  RH  052%=      5-min Rain = 0
KCA2 270700Z 14008KT 28/17 A2984 RMK A01 T02750167  RH  052%=      5-min Rain = 0
KCA2 270701Z 14008KT 28/17 A2984 RMK A01 T02750167  RH  052%=      5-min Rain = 0
KCA2 270702Z 15008KT 28/17 A2984 RMK A01 T02750167  RH  052%=      5-min Rain = 0
KCA2 270703Z 14007KT 28/17 A2984 RMK A01 T02750168  RH  052%=      5-min Rain = 0
KCA2 270704Z 15008KT 28/17 A2984 RMK A01 T02750168  RH  052%=      5-min Rain = 0
KCA2 270705Z 15007KT 28/17 A2984 RMK A01 T02750168  RH  052%=      5-min Rain = 0
KCA2 270706Z 15007KT 28/17 A2984 RMK A01 T02750168  RH  052%=      5-min Rain = 0
KCA2 270707Z 15008KT 28/17 A2984 RMK A01 T02750168  RH  052%=      5-min Rain = 0
KCA2 270708Z 15006KT 28/17 A2984 RMK A01 T02750168  RH  052%=      5-min Rain = 0
KCA2 270709Z 15009KT 28/17 A2984 RMK A01 T02750168  RH  052%=      5-min Rain = 0
KCA2 270710Z 16007KT 28/17 A2984 RMK A01 T02750168  RH  052%=      5-min Rain = 0
KCA2 270711Z 15006KT 28/17 A2984 RMK A01 T02750168  RH  052%=      5-min Rain = 0
KCA2 270712Z 15006KT 28/17 A2984 RMK A01 T02750168  RH  052%=      5-min Rain = 0
KCA2 270713Z 16006KT 28/17 A2984 RMK A01 T02750169  RH  052%=      5-min Rain = 0
KCA2 270714Z 16007KT 28/17 A2984 RMK A01 T02750169  RH  052%=      5-min Rain = 0
KCA2 270715Z 16007KT 27/17 A2984 RMK A01 T02740168  RH  052%=      5-min Rain = 0
KCA2 270716Z 16008KT 27/17 A2984 RMK A01 T02740168  RH  052%=      5-min Rain = 0
KCA2 270717Z 16008KT 27/17 A2984 RMK A01 T02740169  RH  053%=      5-min Rain = 0
KCA2 270718Z 17008KT 27/17 A2984 RMK A01 T02740169  RH  053%=      5-min Rain = 0
KCA2 270719Z 16008KT 27/17 A2984 RMK A01 T02740169  RH  053%=      5-min Rain = 0
KCA2 270720Z 17008KT 28/17 A2984 RMK A01 T02750169  RH  052%=      5-min Rain = 0
KCA2 270721Z 16007KT 28/17 A2984 RMK A01 T02750169  RH  053%=      5-min Rain = 0
KCA2 270722Z 16008KT 28/17 A2984 RMK A01 T02750170  RH  053%=      5-min Rain = 0
KCA2 270723Z 16008KT 28/17 A2984 RMK A01 T02750170  RH  053%=      5-min Rain = 0
KCA2 270724Z 16007KT 28/17 A2984 RMK A01 T02750170  RH  053%=      5-min Rain = 0
KCA2 270725Z 16008KT 27/17 A2984 RMK A01 T02740170  RH  053%=      5-min Rain = 0
KCA2 270726Z 16009KT 27/17 A2984 RMK A01 T02740170  RH  053%=      5-min Rain = 0
KCA2 270727Z 16009KT 27/17 A2984 RMK A01 T02740170  RH  053%=      5-min Rain = 0
KCA2 270728Z 16009KT 27/17 A2984 RMK A01 T02740169  RH  053%=      5-min Rain = 0
KCA2 270729Z 16008KT 27/17 A2984 RMK A01 T02740169  RH  053%=      5-min Rain = 0
KCA2 270730Z 16010KT 27/17 A2984 RMK A01 T02740170  RH  053%=      5-min Rain = 0
KCA2 270731Z 16010KT 28/17 A2984 RMK A01 T02750170  RH  053%=      5-min Rain = 0
KCA2 270732Z 16011KT 28/17 A2984 RMK A01 T02750170  RH  053%=      5-min Rain = 0
KCA2 270733Z 16011KT 28/17 A2984 RMK A01 T02750170  RH  053%=      5-min Rain = 0
KCA2 270734Z 15009KT 28/17 A2984 RMK A01 T02750170  RH  053%=      5-min Rain = 0
KCA2 270735Z 16009KT 28/17 A2984 RMK A01 T02750170  RH  053%=      5-min Rain = 0
KCA2 270736Z 16009KT 28/17 A2984 RMK A01 T02750170  RH  053%=      5-min Rain = 0
KCA2 270737Z 16009KT 28/17 A2984 RMK A01 T02750170  RH  053%=      5-min Rain = 0
KCA2 270738Z 15009KT 28/17 A2984 RMK A01 T02750170  RH  053%=      5-min Rain = 0
KCA2 270739Z 15012KT 28/17 A2984 RMK A01 T02750170  RH  053%=      5-min Rain = 0
KCA2 270740Z 15010KT 28/17 A2984 RMK A01 T02750170  RH  053%=      5-min Rain = 0
KCA2 270741Z 15009KT 28/17 A2984 RMK A01 T02760171  RH  053%=      5-min Rain = 0
KCA2 270742Z 15011KT 28/17 A2984 RMK A01 T02760171  RH  053%=      5-min Rain = 0
KCA2 270743Z 15009KT 28/17 A2984 RMK A01 T02760171  RH  053%=      5-min Rain = 0
KCA2 270744Z 15010KT 28/17 A2984 RMK A01 T02750170  RH  053%=      5-min Rain = 0
KCA2 270745Z 15009KT 28/17 A2984 RMK A01 T02760171  RH  053%=      5-min Rain = 0
KCA2 270746Z 15009KT 28/17 A2983 RMK A01 T02750171  RH  053%=      5-min Rain = 0
KCA2 270747Z 15010KT 28/17 A2983 RMK A01 T02750171  RH  053%=      5-min Rain = 0
KCA2 270748Z 15010KT 27/17 A2983 RMK A01 T02740171  RH  053%=      5-min Rain = 0
KCA2 270749Z 15011KT 27/17 A2983 RMK A01 T02740171  RH  053%=      5-min Rain = 0
KCA2 270750Z 15011KT 27/17 A2983 RMK A01 T02740171  RH  053%=      5-min Rain = 0
KCA2 270751Z 15012KT 27/17 A2983 RMK A01 T02740171  RH  053%=      5-min Rain = 0
KCA2 270752Z 15010KT 27/17 A2983 RMK A01 T02740171  RH  053%=      5-min Rain = 0
KCA2 270753Z 15010KT 27/17 A2983 RMK A01 T02740171  RH  053%=      5-min Rain = 0
KCA2 270754Z 15009KT 27/17 A2983 RMK A01 T02740171  RH  053%=      5-min Rain = 0
KCA2 270755Z 15010KT 27/17 A2983 RMK A01 T02730171  RH  054%=      5-min Rain = 0
KCA2 270756Z 16009KT 27/17 A2983 RMK A01 T02730171  RH  054%=      5-min Rain = 0
KCA2 270757Z 16009KT 27/17 A2983 RMK A01 T02730171  RH  054%=      5-min Rain = 0
KCA2 270758Z 16009KT 27/17 A2983 RMK A01 T02730171  RH  054%=      5-min Rain = 0
KCA2 270759Z 16009KT 27/17 A2983 RMK A01 T02730171  RH  054%=      5-min Rain = 0
KCA2 270800Z 15009KT 27/17 A2983 RMK A01 T02730171  RH  054%=      5-min Rain = 0
KCA2 270801Z 16009KT 27/17 A2983 RMK A01 T02730172  RH  054%=      5-min Rain = 0
KCA2 270802Z 16009KT 27/17 A2983 RMK A01 T02730171  RH  054%=      5-min Rain = 0
KCA2 270803Z 16010KT 27/17 A2983 RMK A01 T02730171  RH  054%=      5-min Rain = 0
KCA2 270804Z 15009KT 27/17 A2983 RMK A01 T02730171  RH  054%=      5-min Rain = 0
KCA2 270805Z 15008KT 27/17 A2983 RMK A01 T02730171  RH  054%=      5-min Rain = 0
KCA2 270806Z 16007KT 27/17 A2983 RMK A01 T02730171  RH  054%=      5-min Rain = 0
KCA2 270807Z 15007KT 27/17 A2983 RMK A01 T02730171  RH  054%=      5-min Rain = 0
KCA2 270808Z 15008KT 27/17 A2983 RMK A01 T02730171  RH  054%=      5-min Rain = 0
KCA2 270809Z 16006KT 27/17 A2983 RMK A01 T02730171  RH  054%=      5-min Rain = 0
KCA2 270810Z 15005KT 27/17 A2983 RMK A01 T02730171  RH  054%=      5-min Rain = 0
KCA2 270811Z 15005KT 27/17 A2983 RMK A01 T02730171  RH  054%=      5-min Rain = 0
KCA2 270812Z 15005KT 27/17 A2983 RMK A01 T02730171  RH  054%=      5-min Rain = 0
KCA2 270813Z 16006KT 27/17 A2983 RMK A01 T02730171  RH  054%=      5-min Rain = 0
KCA2 270814Z 16005KT 27/17 A2983 RMK A01 T02730171  RH  054%=      5-min Rain = 0
KCA2 270815Z 15007KT 27/17 A2983 RMK A01 T02730171  RH  054%=      5-min Rain = 0
KCA2 270816Z 15007KT 27/17 A2983 RMK A01 T02730171  RH  054%=      5-min Rain = 0
KCA2 270817Z 15006KT 27/17 A2983 RMK A01 T02730171  RH  054%=      5-min Rain = 0
KCA2 270818Z 15006KT 27/17 A2983 RMK A01 T02730171  RH  054%=      5-min Rain = 0
KCA2 270819Z 15007KT 27/17 A2983 RMK A01 T02730171  RH  054%=      5-min Rain = 0
KCA2 270820Z 16006KT 27/17 A2983 RMK A01 T02730171  RH  054%=      5-min Rain = 0
KCA2 270821Z 16008KT 27/17 A2983 RMK A01 T02730171  RH  054%=      5-min Rain = 0
KCA2 270822Z 15006KT 27/17 A2983 RMK A01 T02730171  RH  053%=      5-min Rain = 0
KCA2 270823Z 16006KT 27/17 A2983 RMK A01 T02730171  RH  053%=      5-min Rain = 0
KCA2 270824Z 15007KT 27/17 A2983 RMK A01 T02730171  RH  054%=      5-min Rain = 0
KCA2 270825Z 16005KT 27/17 A2983 RMK A01 T02740171  RH  054%=      5-min Rain = 0
KCA2 270826Z 16006KT 27/17 A2983 RMK A01 T02730171  RH  054%=      5-min Rain = 0
KCA2 270827Z 16006KT 27/17 A2983 RMK A01 T02730171  RH  054%=      5-min Rain = 0
KCA2 270828Z 16006KT 27/17 A2983 RMK A01 T02730171  RH  054%=      5-min Rain = 0
KCA2 270829Z 16007KT 27/17 A2983 RMK A01 T02720171  RH  054%=      5-min Rain = 0
KCA2 270830Z 16006KT 27/17 A2983 RMK A01 T02730171  RH  054%=      5-min Rain = 0
KCA2 270831Z 16006KT 27/17 A2983 RMK A01 T02720171  RH  054%=      5-min Rain = 0
KCA2 270832Z 16006KT 27/17 A2983 RMK A01 T02720171  RH  054%=      5-min Rain = 0
KCA2 270833Z 16005KT 27/17 A2983 RMK A01 T02720171  RH  054%=      5-min Rain = 0
KCA2 270834Z 16006KT 27/17 A2983 RMK A01 T02720171  RH  054%=      5-min Rain = 0
KCA2 270835Z 16005KT 27/17 A2983 RMK A01 T02720171  RH  054%=      5-min Rain = 0
KCA2 270836Z 16005KT 27/17 A2983 RMK A01 T02720171  RH  054%=      5-min Rain = 0
KCA2 270837Z 17005KT 27/17 A2983 RMK A01 T02720171  RH  054%=      5-min Rain = 0
KCA2 270838Z 16005KT 27/17 A2983 RMK A01 T02720171  RH  054%=      5-min Rain = 0
KCA2 270839Z 16006KT 27/17 A2983 RMK A01 T02710171  RH  054%=      5-min Rain = 0
KCA2 270840Z 16004KT 27/17 A2983 RMK A01 T02710171  RH  054%=      5-min Rain = 0
KCA2 270841Z 16005KT 27/17 A2983 RMK A01 T02710171  RH  054%=      5-min Rain = 0
KCA2 270842Z 16007KT 27/17 A2983 RMK A01 T02720171  RH  054%=      5-min Rain = 0
KCA2 270843Z 16005KT 27/17 A2983 RMK A01 T02720171  RH  054%=      5-min Rain = 0
KCA2 270844Z 16005KT 27/17 A2983 RMK A01 T02720171  RH  054%=      5-min Rain = 0
KCA2 270845Z 17005KT 27/17 A2983 RMK A01 T02720171  RH  054%=      5-min Rain = 0
KCA2 270846Z 16006KT 27/17 A2983 RMK A01 T02710171  RH  054%=      5-min Rain = 0
KCA2 270847Z 16006KT 27/17 A2983 RMK A01 T02710171  RH  054%=      5-min Rain = 0
KCA2 270848Z 17006KT 27/17 A2983 RMK A01 T02710171  RH  054%=      5-min Rain = 0
KCA2 270849Z 17006KT 27/17 A2983 RMK A01 T02710171  RH  054%=      5-min Rain = 0
KCA2 270850Z 17006KT 27/17 A2983 RMK A01 T02710171  RH  054%=      5-min Rain = 0
KCA2 270851Z 17006KT 27/17 A2983 RMK A01 T02710171  RH  054%=      5-min Rain = 0
KCA2 270852Z 17006KT 27/17 A2983 RMK A01 T02710171  RH  054%=      5-min Rain = 0
KCA2 270853Z 17005KT 27/17 A2983 RMK A01 T02710171  RH  054%=      5-min Rain = 0
KCA2 270854Z 18005KT 27/17 A2983 RMK A01 T02710171  RH  054%=      5-min Rain = 0
KCA2 270855Z 17004KT 27/17 A2983 RMK A01 T02710171  RH  054%=      5-min Rain = 0
KCA2 270856Z 17005KT 27/17 A2983 RMK A01 T02710172  RH  054%=      5-min Rain = 0
KCA2 270857Z 18005KT 27/17 A2983 RMK A01 T02710171  RH  055%=      5-min Rain = 0
KCA2 270858Z 18005KT 27/17 A2983 RMK A01 T02700171  RH  055%=      5-min Rain = 0
KCA2 270859Z 17005KT 27/17 A2983 RMK A01 T02710171  RH  055%=      5-min Rain = 0
KCA2 270900Z 17006KT 27/17 A2983 RMK A01 T02700171  RH  055%=      5-min Rain = 0
KCA2 270901Z 18004KT 27/17 A2983 RMK A01 T02700171  RH  055%=      5-min Rain = 0
KCA2 270902Z 17005KT 27/17 A2983 RMK A01 T02700171  RH  055%=      5-min Rain = 0
KCA2 270903Z 18005KT 27/17 A2983 RMK A01 T02700171  RH  055%=      5-min Rain = 0
KCA2 270904Z 17006KT 27/17 A2983 RMK A01 T02700171  RH  055%=      5-min Rain = 0
KCA2 270905Z 17005KT 27/17 A2983 RMK A01 T02700171  RH  055%=      5-min Rain = 0
KCA2 270906Z 16006KT 27/17 A2983 RMK A01 T02700171  RH  055%=      5-min Rain = 0
KCA2 270907Z 17005KT 27/17 A2983 RMK A01 T02700171  RH  055%=      5-min Rain = 0
KCA2 270908Z 17005KT 27/17 A2983 RMK A01 T02700172  RH  055%=      5-min Rain = 0
KCA2 270909Z 17006KT 27/17 A2983 RMK A01 T02700171  RH  055%=      5-min Rain = 0
KCA2 270910Z 17006KT 27/17 A2983 RMK A01 T02700171  RH  055%=      5-min Rain = 0
KCA2 270911Z 17005KT 27/17 A2983 RMK A01 T02700171  RH  055%=      5-min Rain = 0
KCA2 270912Z 16005KT 27/17 A2983 RMK A01 T02700171  RH  055%=      5-min Rain = 0
KCA2 270913Z 17005KT 27/17 A2983 RMK A01 T02700171  RH  055%=      5-min Rain = 0
KCA2 270914Z 18005KT 27/17 A2983 RMK A01 T02700172  RH  055%=      5-min Rain = 0
KCA2 270915Z 17005KT 27/17 A2983 RMK A01 T02700172  RH  055%=      5-min Rain = 0
KCA2 270916Z 17004KT 27/17 A2983 RMK A01 T02700171  RH  055%=      5-min Rain = 0
KCA2 270917Z 17005KT 27/17 A2983 RMK A01 T02700172  RH  055%=      5-min Rain = 0
KCA2 270918Z 17005KT 27/17 A2983 RMK A01 T02690171  RH  055%=      5-min Rain = 0
KCA2 270919Z 17006KT 27/17 A2983 RMK A01 T02690171  RH  055%=      5-min Rain = 0
KCA2 270920Z 18006KT 27/17 A2983 RMK A01 T02690171  RH  055%=      5-min Rain = 0
KCA2 270921Z 18006KT 27/17 A2983 RMK A01 T02690171  RH  055%=      5-min Rain = 0
KCA2 270922Z 18006KT 27/17 A2983 RMK A01 T02690171  RH  055%=      5-min Rain = 0
KCA2 270923Z 18005KT 27/17 A2983 RMK A01 T02690172  RH  055%=      5-min Rain = 0
KCA2 270924Z 18005KT 27/17 A2983 RMK A01 T02690171  RH  055%=      5-min Rain = 0
KCA2 270925Z 17005KT 27/17 A2983 RMK A01 T02690171  RH  055%=      5-min Rain = 0
KCA2 270926Z 18005KT 27/17 A2983 RMK A01 T02690172  RH  055%=      5-min Rain = 0
KCA2 270927Z 18005KT 27/17 A2983 RMK A01 T02690171  RH  055%=      5-min Rain = 0
KCA2 270928Z 18006KT 27/17 A2983 RMK A01 T02680171  RH  055%=      5-min Rain = 0
KCA2 270929Z 18006KT 27/17 A2983 RMK A01 T02680171  RH  055%=      5-min Rain = 0
KCA2 270930Z 18006KT 27/17 A2983 RMK A01 T02680171  RH  055%=      5-min Rain = 0
KCA2 270931Z 18006KT 27/17 A2983 RMK A01 T02680171  RH  055%=      5-min Rain = 0
KCA2 270932Z 18006KT 27/17 A2983 RMK A01 T02680171  RH  055%=      5-min Rain = 0
KCA2 270933Z 18005KT 27/17 A2983 RMK A01 T02680171  RH  055%=      5-min Rain = 0
KCA2 270934Z 17007KT 27/17 A2983 RMK A01 T02680171  RH  055%=      5-min Rain = 0
KCA2 270935Z 17006KT 27/17 A2983 RMK A01 T02680171  RH  055%=      5-min Rain = 0
KCA2 270936Z 18005KT 27/17 A2983 RMK A01 T02680171  RH  055%=      5-min Rain = 0
KCA2 270937Z 17005KT 27/17 A2983 RMK A01 T02680171  RH  055%=      5-min Rain = 0
KCA2 270938Z 17005KT 27/17 A2983 RMK A01 T02680171  RH  055%=      5-min Rain = 0
KCA2 270939Z 17005KT 27/17 A2983 RMK A01 T02680171  RH  055%=      5-min Rain = 0
KCA2 270940Z 17005KT 27/17 A2983 RMK A01 T02680171  RH  055%=      5-min Rain = 0
KCA2 270941Z 17005KT 27/17 A2983 RMK A01 T02670171  RH  055%=      5-min Rain = 0
KCA2 270942Z 17005KT 27/17 A2983 RMK A01 T02670171  RH  056%=      5-min Rain = 0
KCA2 270943Z 17006KT 27/17 A2983 RMK A01 T02670171  RH  056%=      5-min Rain = 0
KCA2 270944Z 17005KT 27/17 A2983 RMK A01 T02670171  RH  056%=      5-min Rain = 0
KCA2 270945Z 16006KT 27/17 A2983 RMK A01 T02670171  RH  056%=      5-min Rain = 0
KCA2 270946Z 17007KT 27/17 A2984 RMK A01 T02660171  RH  056%=      5-min Rain = 0
KCA2 270947Z 17006KT 27/17 A2984 RMK A01 T02660171  RH  056%=      5-min Rain = 0
KCA2 270948Z 17006KT 27/17 A2984 RMK A01 T02670171  RH  056%=      5-min Rain = 0
KCA2 270949Z 17005KT 27/17 A2984 RMK A01 T02660171  RH  056%=      5-min Rain = 0
KCA2 270950Z 17005KT 27/17 A2984 RMK A01 T02660171  RH  056%=      5-min Rain = 0
KCA2 270951Z 17006KT 27/17 A2984 RMK A01 T02660171  RH  056%=      5-min Rain = 0
KCA2 270952Z 16006KT 27/17 A2984 RMK A01 T02650171  RH  056%=      5-min Rain = 0
KCA2 270953Z 16007KT 27/17 A2984 RMK A01 T02650170  RH  056%=      5-min Rain = 0
KCA2 270954Z 16007KT 27/17 A2984 RMK A01 T02650171  RH  056%=      5-min Rain = 0
KCA2 270955Z 16007KT 27/17 A2984 RMK A01 T02650171  RH  056%=      5-min Rain = 0
KCA2 270956Z 16007KT 27/17 A2984 RMK A01 T02650171  RH  056%=      5-min Rain = 0
KCA2 270957Z 16006KT 27/17 A2984 RMK A01 T02650170  RH  056%=      5-min Rain = 0
KCA2 270958Z 16006KT 27/17 A2984 RMK A01 T02650170  RH  056%=      5-min Rain = 0
KCA2 270959Z 16006KT 27/17 A2984 RMK A01 T02650171  RH  056%=      5-min Rain = 0
KCA2 271000Z 17006KT 27/17 A2984 RMK A01 T02650171  RH  056%=      5-min Rain = 0
KCA2 271001Z 17007KT 27/17 A2984 RMK A01 T02650171  RH  056%=      5-min Rain = 0
KCA2 271002Z 17006KT 27/17 A2984 RMK A01 T02650170  RH  056%=      5-min Rain = 0
KCA2 271003Z 17006KT 26/17 A2984 RMK A01 T02640170  RH  056%=      5-min Rain = 0
KCA2 271004Z 17006KT 27/17 A2984 RMK A01 T02650171  RH  056%=      5-min Rain = 0
KCA2 271005Z 17006KT 27/17 A2984 RMK A01 T02650171  RH  056%=      5-min Rain = 0
KCA2 271006Z 17006KT 27/17 A2984 RMK A01 T02650171  RH  056%=      5-min Rain = 0
KCA2 271007Z 17006KT 27/17 A2984 RMK A01 T02650171  RH  056%=      5-min Rain = 0
KCA2 271008Z 17005KT 27/17 A2984 RMK A01 T02650171  RH  056%=      5-min Rain = 0
KCA2 271009Z 17006KT 27/17 A2984 RMK A01 T02650171  RH  056%=      5-min Rain = 0
KCA2 271010Z 17005KT 27/17 A2984 RMK A01 T02650171  RH  056%=      5-min Rain = 0
KCA2 271011Z 17005KT 27/17 A2984 RMK A01 T02650171  RH  056%=      5-min Rain = 0
KCA2 271012Z 17005KT 27/17 A2984 RMK A01 T02650171  RH  056%=      5-min Rain = 0
KCA2 271013Z 18005KT 26/17 A2984 RMK A01 T02640171  RH  057%=      5-min Rain = 0
KCA2 271014Z 17007KT 26/17 A2984 RMK A01 T02640171  RH  057%=      5-min Rain = 0
KCA2 271015Z 18005KT 26/17 A2984 RMK A01 T02640171  RH  056%=      5-min Rain = 0
KCA2 271016Z 18005KT 27/17 A2984 RMK A01 T02650171  RH  056%=      5-min Rain = 0
KCA2 271017Z 18005KT 26/17 A2984 RMK A01 T02640171  RH  056%=      5-min Rain = 0
KCA2 271018Z 18006KT 26/17 A2984 RMK A01 T02640171  RH  057%=      5-min Rain = 0
KCA2 271019Z 18005KT 26/17 A2984 RMK A01 T02630171  RH  057%=      5-min Rain = 0
KCA2 271020Z 18005KT 26/17 A2984 RMK A01 T02630171  RH  057%=      5-min Rain = 0
KCA2 271021Z 18005KT 26/17 A2984 RMK A01 T02620171  RH  057%=      5-min Rain = 0
KCA2 271022Z 18005KT 26/17 A2984 RMK A01 T02620171  RH  057%=      5-min Rain = 0
KCA2 271023Z 17005KT 26/17 A2984 RMK A01 T02620171  RH  057%=      5-min Rain = 0
KCA2 271024Z 17006KT 26/17 A2984 RMK A01 T02610171  RH  057%=      5-min Rain = 0
KCA2 271025Z 17006KT 26/17 A2984 RMK A01 T02610171  RH  057%=      5-min Rain = 0
KCA2 271026Z 17005KT 26/17 A2984 RMK A01 T02610171  RH  057%=      5-min Rain = 0
KCA2 271027Z 17006KT 26/17 A2984 RMK A01 T02610171  RH  057%=      5-min Rain = 0
KCA2 271028Z 17006KT 26/17 A2984 RMK A01 T02620171  RH  057%=      5-min Rain = 0
KCA2 271029Z 17005KT 26/17 A2984 RMK A01 T02620171  RH  057%=      5-min Rain = 0
KCA2 271030Z 18006KT 26/17 A2984 RMK A01 T02620171  RH  058%=      5-min Rain = 0
KCA2 271031Z 18005KT 26/17 A2984 RMK A01 T02620171  RH  058%=      5-min Rain = 0
KCA2 271032Z 17005KT 26/17 A2984 RMK A01 T02620171  RH  058%=      5-min Rain = 0
KCA2 271033Z 18005KT 26/17 A2984 RMK A01 T02620172  RH  058%=      5-min Rain = 0
KCA2 271034Z 17005KT 26/17 A2984 RMK A01 T02610171  RH  057%=      5-min Rain = 0
KCA2 271035Z 17006KT 26/17 A2984 RMK A01 T02610171  RH  058%=      5-min Rain = 0
KCA2 271036Z 17005KT 26/17 A2984 RMK A01 T02610171  RH  058%=      5-min Rain = 0
KCA2 271037Z 17004KT 26/17 A2984 RMK A01 T02610171  RH  058%=      5-min Rain = 0
KCA2 271038Z 18005KT 26/17 A2984 RMK A01 T02610171  RH  058%=      5-min Rain = 0
KCA2 271039Z 17005KT 26/17 A2984 RMK A01 T02610172  RH  058%=      5-min Rain = 0
KCA2 271040Z 18004KT 26/17 A2984 RMK A01 T02610172  RH  058%=      5-min Rain = 0
KCA2 271041Z 18004KT 26/17 A2984 RMK A01 T02610171  RH  058%=      5-min Rain = 0
KCA2 271042Z 18004KT 26/17 A2984 RMK A01 T02610171  RH  058%=      5-min Rain = 0
KCA2 271043Z 18004KT 26/17 A2984 RMK A01 T02610172  RH  058%=      5-min Rain = 0
KCA2 271044Z 18004KT 26/17 A2984 RMK A01 T02610171  RH  058%=      5-min Rain = 0
KCA2 271045Z 19005KT 26/17 A2984 RMK A01 T02610171  RH  058%=      5-min Rain = 0
KCA2 271046Z 19004KT 26/17 A2984 RMK A01 T02610171  RH  058%=      5-min Rain = 0
KCA2 271047Z 18005KT 26/17 A2984 RMK A01 T02610171  RH  058%=      5-min Rain = 0
KCA2 271048Z 18005KT 26/17 A2984 RMK A01 T02610172  RH  058%=      5-min Rain = 0
KCA2 271049Z 18005KT 26/17 A2984 RMK A01 T02610172  RH  058%=      5-min Rain = 0
KCA2 271050Z 17004KT 26/17 A2984 RMK A01 T02600171  RH  058%=      5-min Rain = 0
KCA2 271051Z 17004KT 26/17 A2984 RMK A01 T02610172  RH  058%=      5-min Rain = 0
KCA2 271052Z 17004KT 26/17 A2984 RMK A01 T02600172  RH  058%=      5-min Rain = 0
KCA2 271053Z 18004KT 26/17 A2984 RMK A01 T02600172  RH  058%=      5-min Rain = 0
KCA2 271054Z 17004KT 26/17 A2984 RMK A01 T02590172  RH  058%=      5-min Rain = 0
KCA2 271055Z 18004KT 26/17 A2984 RMK A01 T02590172  RH  059%=      5-min Rain = 0
KCA2 271056Z 17004KT 26/17 A2984 RMK A01 T02590172  RH  059%=      5-min Rain = 0
KCA2 271057Z 17004KT 26/17 A2984 RMK A01 T02590172  RH  059%=      5-min Rain = 0
KCA2 271058Z 17004KT 26/17 A2984 RMK A01 T02590172  RH  059%=      5-min Rain = 0
KCA2 271059Z 17004KT 26/17 A2984 RMK A01 T02590172  RH  059%=      5-min Rain = 0
KCA2 271100Z 16004KT 26/17 A2985 RMK A01 T02590173  RH  059%=      5-min Rain = 0
KCA2 271101Z 17004KT 26/17 A2985 RMK A01 T02590172  RH  059%=      5-min Rain = 0
KCA2 271102Z 16004KT 26/17 A2984 RMK A01 T02580172  RH  059%=      5-min Rain = 0
KCA2 271103Z 16004KT 26/17 A2985 RMK A01 T02580172  RH  059%=      5-min Rain = 0
KCA2 271104Z 16004KT 26/17 A2985 RMK A01 T02580172  RH  059%=      5-min Rain = 0
KCA2 271105Z 15004KT 26/17 A2985 RMK A01 T02580172  RH  059%=      5-min Rain = 0
KCA2 271106Z 16004KT 26/17 A2985 RMK A01 T02570172  RH  059%=      5-min Rain = 0
KCA2 271107Z 16004KT 26/17 A2985 RMK A01 T02570172  RH  060%=      5-min Rain = 0
KCA2 271108Z 16004KT 26/17 A2985 RMK A01 T02560172  RH  060%=      5-min Rain = 0
KCA2 271109Z 17005KT 26/17 A2985 RMK A01 T02560173  RH  060%=      5-min Rain = 0
KCA2 271110Z 17005KT 26/17 A2985 RMK A01 T02560173  RH  060%=      5-min Rain = 0
KCA2 271111Z 16004KT 26/17 A2985 RMK A01 T02570172  RH  060%=      5-min Rain = 0
KCA2 271112Z 16004KT 26/17 A2985 RMK A01 T02570173  RH  060%=      5-min Rain = 0
KCA2 271113Z 16005KT 26/17 A2985 RMK A01 T02570173  RH  060%=      5-min Rain = 0
KCA2 271114Z 16005KT 26/17 A2985 RMK A01 T02560173  RH  060%=      5-min Rain = 0
KCA2 271115Z 15005KT 26/17 A2985 RMK A01 T02560173  RH  060%=      5-min Rain = 0
KCA2 271116Z 16005KT 26/17 A2985 RMK A01 T02560173  RH  060%=      5-min Rain = 0
KCA2 271117Z 16005KT 26/17 A2985 RMK A01 T02560173  RH  060%=      5-min Rain = 0
KCA2 271118Z 15005KT 26/17 A2985 RMK A01 T02560173  RH  060%=      5-min Rain = 0
KCA2 271119Z 15006KT 26/17 A2985 RMK A01 T02560173  RH  060%=      5-min Rain = 0
KCA2 271120Z 15006KT 26/17 A2985 RMK A01 T02560173  RH  060%=      5-min Rain = 0
KCA2 271121Z 15005KT 26/17 A2985 RMK A01 T02560173  RH  060%=      5-min Rain = 0
KCA2 271122Z 15005KT 26/17 A2985 RMK A01 T02570173  RH  060%=      5-min Rain = 0
KCA2 271123Z 15006KT 26/17 A2985 RMK A01 T02570174  RH  060%=      5-min Rain = 0
KCA2 271124Z 14005KT 26/17 A2985 RMK A01 T02580173  RH  060%=      5-min Rain = 0
KCA2 271125Z 14005KT 26/17 A2985 RMK A01 T02580173  RH  059%=      5-min Rain = 0
KCA2 271126Z 14005KT 26/17 A2985 RMK A01 T02580173  RH  059%=      5-min Rain = 0
KCA2 271127Z 14005KT 26/17 A2985 RMK A01 T02580173  RH  060%=      5-min Rain = 0
KCA2 271128Z 14005KT 26/17 A2985 RMK A01 T02570173  RH  060%=      5-min Rain = 0
KCA2 271129Z 15005KT 26/17 A2985 RMK A01 T02570173  RH  060%=      5-min Rain = 0
KCA2 271130Z 15006KT 26/17 A2985 RMK A01 T02570174  RH  060%=      5-min Rain = 0
KCA2 271131Z 15006KT 26/17 A2985 RMK A01 T02560173  RH  060%=      5-min Rain = 0
KCA2 271132Z 16006KT 26/17 A2985 RMK A01 T02560173  RH  060%=      5-min Rain = 0
KCA2 271133Z 16007KT 26/17 A2985 RMK A01 T02570174  RH  060%=      5-min Rain = 0
KCA2 271134Z 16007KT 26/17 A2985 RMK A01 T02570174  RH  060%=      5-min Rain = 0
KCA2 271135Z 16006KT 26/17 A2985 RMK A01 T02580174  RH  060%=      5-min Rain = 0
KCA2 271136Z 15007KT 26/17 A2985 RMK A01 T02590174  RH  060%=      5-min Rain = 0
KCA2 271137Z 15006KT 26/17 A2985 RMK A01 T02590174  RH  060%=      5-min Rain = 0
KCA2 271138Z 15005KT 26/17 A2985 RMK A01 T02590174  RH  059%=      5-min Rain = 0
KCA2 271139Z 15006KT 26/17 A2985 RMK A01 T02590174  RH  059%=      5-min Rain = 0
KCA2 271140Z 15005KT 26/17 A2985 RMK A01 T02590174  RH  060%=      5-min Rain = 0
KCA2 271141Z 15006KT 26/18 A2985 RMK A01 T02590175  RH  060%=      5-min Rain = 0
KCA2 271142Z 15005KT 26/18 A2985 RMK A01 T02590175  RH  060%=      5-min Rain = 0
KCA2 271143Z 14006KT 26/17 A2985 RMK A01 T02590174  RH  060%=      5-min Rain = 0
KCA2 271144Z 15005KT 26/17 A2985 RMK A01 T02590174  RH  060%=      5-min Rain = 0
KCA2 271145Z 15005KT 26/17 A2985 RMK A01 T02590174  RH  060%=      5-min Rain = 0
KCA2 271146Z 15005KT 26/17 A2985 RMK A01 T02590174  RH  060%=      5-min Rain = 0
KCA2 271147Z 15004KT 26/17 A2986 RMK A01 T02590174  RH  060%=      5-min Rain = 0
KCA2 271148Z 15005KT 26/17 A2986 RMK A01 T02580174  RH  060%=      5-min Rain = 0
KCA2 271149Z 15005KT 26/17 A2986 RMK A01 T02580174  RH  060%=      5-min Rain = 0
KCA2 271150Z 16005KT 26/18 A2986 RMK A01 T02580175  RH  060%=      5-min Rain = 0
KCA2 271151Z 15005KT 26/17 A2986 RMK A01 T02580174  RH  060%=      5-min Rain = 0
KCA2 271152Z 16006KT 26/17 A2986 RMK A01 T02580174  RH  060%=      5-min Rain = 0
KCA2 271153Z 15005KT 26/18 A2986 RMK A01 T02580175  RH  060%=      5-min Rain = 0
KCA2 271154Z 15005KT 26/18 A2986 RMK A01 T02580175  RH  060%=      5-min Rain = 0
KCA2 271155Z 15005KT 26/17 A2986 RMK A01 T02580174  RH  060%=      5-min Rain = 0
KCA2 271156Z 15006KT 26/18 A2986 RMK A01 T02580175  RH  060%=      5-min Rain = 0
KCA2 271157Z 15006KT 26/18 A2986 RMK A01 T02580175  RH  060%=      5-min Rain = 0
KCA2 271158Z 15004KT 26/18 A2986 RMK A01 T02580175  RH  060%=      5-min Rain = 0
KCA2 271159Z 16007KT 26/17 A2986 RMK A01 T02570174  RH  060%=      5-min Rain = 0
KCA2 271200Z 15006KT 26/18 A2986 RMK A01 T02570175  RH  060%=      5-min Rain = 0
KCA2 271201Z 15007KT 26/17 A2986 RMK A01 T02570174  RH  060%=      5-min Rain = 0
KCA2 271202Z 16007KT 26/18 A2986 RMK A01 T02580175  RH  060%=      5-min Rain = 0
KCA2 271203Z 15006KT 26/18 A2986 RMK A01 T02580175  RH  060%=      5-min Rain = 0
KCA2 271204Z 15006KT 26/18 A2986 RMK A01 T02580175  RH  060%=      5-min Rain = 0
KCA2 271205Z 15005KT 26/18 A2986 RMK A01 T02580175  RH  060%=      5-min Rain = 0
KCA2 271206Z 16006KT 26/18 A2985 RMK A01 T02580175  RH  060%=      5-min Rain = 0
KCA2 271207Z 15007KT 26/18 A2985 RMK A01 T02580175  RH  060%=      5-min Rain = 0
KCA2 271208Z 16006KT 26/18 A2985 RMK A01 T02580175  RH  060%=      5-min Rain = 0
KCA2 271209Z 15006KT 26/18 A2986 RMK A01 T02590175  RH  060%=      5-min Rain = 0
KCA2 271210Z 16005KT 26/18 A2986 RMK A01 T02580175  RH  060%=      5-min Rain = 0
KCA2 271211Z 16006KT 26/18 A2986 RMK A01 T02580175  RH  060%=      5-min Rain = 0
KCA2 271212Z 16006KT 26/18 A2986 RMK A01 T02580176  RH  060%=      5-min Rain = 0
KCA2 271213Z 16006KT 26/18 A2986 RMK A01 T02580176  RH  060%=      5-min Rain = 0
KCA2 271214Z 16005KT 26/18 A2986 RMK A01 T02570175  RH  060%=      5-min Rain = 0
KCA2 271215Z 16006KT 26/18 A2986 RMK A01 T02570176  RH  061%=      5-min Rain = 0
KCA2 271216Z 16006KT 26/18 A2986 RMK A01 T02570175  RH  061%=      5-min Rain = 0
KCA2 271217Z 16007KT 26/18 A2986 RMK A01 T02560175  RH  061%=      5-min Rain = 0
KCA2 271218Z 16006KT 26/18 A2986 RMK A01 T02570176  RH  061%=      5-min Rain = 0
KCA2 271219Z 16006KT 26/18 A2986 RMK A01 T02560175  RH  061%=      5-min Rain = 0
KCA2 271220Z 16006KT 26/18 A2986 RMK A01 T02570176  RH  061%=      5-min Rain = 0
KCA2 271221Z 16006KT 26/18 A2986 RMK A01 T02570176  RH  061%=      5-min Rain = 0
KCA2 271222Z 16005KT 26/18 A2986 RMK A01 T02570176  RH  061%=      5-min Rain = 0
KCA2 271223Z 16006KT 26/18 A2986 RMK A01 T02560176  RH  061%=      5-min Rain = 0
KCA2 271224Z 16006KT 26/18 A2986 RMK A01 T02560175  RH  061%=      5-min Rain = 0
KCA2 271225Z 16006KT 26/18 A2986 RMK A01 T02570175  RH  061%=      5-min Rain = 0
KCA2 271226Z 15007KT 26/18 A2986 RMK A01 T02570175  RH  061%=      5-min Rain = 0
KCA2 271227Z 16007KT 26/18 A2986 RMK A01 T02580176  RH  060%=      5-min Rain = 0
KCA2 271228Z 16007KT 26/18 A2986 RMK A01 T02590176  RH  060%=      5-min Rain = 0
KCA2 271229Z 16006KT 26/18 A2986 RMK A01 T02590176  RH  060%=      5-min Rain = 0
KCA2 271230Z 16005KT 26/18 A2986 RMK A01 T02600176  RH  060%=      5-min Rain = 0
KCA2 271231Z 16005KT 26/18 A2986 RMK A01 T02600176  RH  060%=      5-min Rain = 0
KCA2 271232Z 16005KT 26/18 A2986 RMK A01 T02600176  RH  060%=      5-min Rain = 0
KCA2 271233Z 16008KT 26/18 A2986 RMK A01 T02600176  RH  060%=      5-min Rain = 0
KCA2 271234Z 15006KT 26/18 A2986 RMK A01 T02600176  RH  060%=      5-min Rain = 0
KCA2 271235Z 15006KT 26/18 A2986 RMK A01 T02600176  RH  060%=      5-min Rain = 0
KCA2 271236Z 15006KT 26/18 A2986 RMK A01 T02600176  RH  060%=      5-min Rain = 0
KCA2 271237Z 15007KT 26/18 A2986 RMK A01 T02600176  RH  060%=      5-min Rain = 0
KCA2 271238Z 15007KT 26/18 A2986 RMK A01 T02600176  RH  060%=      5-min Rain = 0
KCA2 271239Z 16008KT 26/18 A2986 RMK A01 T02600176  RH  060%=      5-min Rain = 0
KCA2 271240Z 16007KT 26/18 A2986 RMK A01 T02610177  RH  060%=      5-min Rain = 0
KCA2 271241Z 16007KT 26/18 A2986 RMK A01 T02610177  RH  060%=      5-min Rain = 0
KCA2 271242Z 16007KT 26/18 A2986 RMK A01 T02610177  RH  060%=      5-min Rain = 0
KCA2 271243Z 17008KT 26/18 A2986 RMK A01 T02610177  RH  060%=      5-min Rain = 0
KCA2 271244Z 17006KT 26/18 A2986 RMK A01 T02610177  RH  060%=      5-min Rain = 0
KCA2 271245Z 17006KT 26/18 A2986 RMK A01 T02610177  RH  060%=      5-min Rain = 0
KCA2 271246Z 17007KT 26/18 A2986 RMK A01 T02610177  RH  060%=      5-min Rain = 0
KCA2 271247Z 16007KT 26/18 A2986 RMK A01 T02610177  RH  060%=      5-min Rain = 0
KCA2 271248Z 17006KT 26/18 A2986 RMK A01 T02620177  RH  060%=      5-min Rain = 0
KCA2 271249Z 17006KT 26/18 A2986 RMK A01 T02620177  RH  060%=      5-min Rain = 0
KCA2 271250Z 18006KT 26/18 A2986 RMK A01 T02620177  RH  060%=      5-min Rain = 0
KCA2 271251Z 17006KT 26/18 A2986 RMK A01 T02620178  RH  060%=      5-min Rain = 0
KCA2 271252Z 17006KT 26/18 A2986 RMK A01 T02620177  RH  060%=      5-min Rain = 0
KCA2 271253Z 16006KT 26/18 A2986 RMK A01 T02620177  RH  060%=      5-min Rain = 0
KCA2 271254Z 15007KT 26/18 A2986 RMK A01 T02620177  RH  060%=      5-min Rain = 0
KCA2 271255Z 16007KT 26/18 A2986 RMK A01 T02620178  RH  060%=      5-min Rain = 0
KCA2 271256Z 16008KT 26/18 A2986 RMK A01 T02620178  RH  060%=      5-min Rain = 0
KCA2 271257Z 17008KT 26/18 A2986 RMK A01 T02620178  RH  060%=      5-min Rain = 0
KCA2 271258Z 17007KT 26/18 A2986 RMK A01 T02630178  RH  060%=      5-min Rain = 0
KCA2 271259Z 16006KT 26/18 A2986 RMK A01 T02630178  RH  060%=      5-min Rain = 0
KCA2 271300Z 16007KT 26/18 A2986 RMK A01 T02630178  RH  060%=      5-min Rain = 0
KCA2 271301Z 16006KT 26/18 A2986 RMK A01 T02630178  RH  060%=      5-min Rain = 0
KCA2 271302Z 16007KT 26/18 A2986 RMK A01 T02630178  RH  060%=      5-min Rain = 0
KCA2 271303Z 17007KT 26/18 A2986 RMK A01 T02630178  RH  059%=      5-min Rain = 0
KCA2 271304Z 17007KT 26/18 A2986 RMK A01 T02640178  RH  059%=      5-min Rain = 0
KCA2 271305Z 16007KT 26/18 A2986 RMK A01 T02640178  RH  059%=      5-min Rain = 0
KCA2 271306Z 17008KT 26/18 A2986 RMK A01 T02640178  RH  059%=      5-min Rain = 0
KCA2 271307Z 16006KT 26/18 A2986 RMK A01 T02640178  RH  059%=      5-min Rain = 0
KCA2 271308Z 17007KT 27/18 A2986 RMK A01 T02650179  RH  059%=      5-min Rain = 0
KCA2 271309Z 17007KT 27/18 A2987 RMK A01 T02650178  RH  059%=      5-min Rain = 0
KCA2 271310Z 17007KT 27/18 A2987 RMK A01 T02650178  RH  059%=      5-min Rain = 0
KCA2 271311Z 17007KT 27/18 A2987 RMK A01 T02660179  RH  059%=      5-min Rain = 0
KCA2 271312Z 17006KT 27/18 A2987 RMK A01 T02660179  RH  059%=      5-min Rain = 0
KCA2 271313Z 18008KT 27/18 A2987 RMK A01 T02660179  RH  059%=      5-min Rain = 0
KCA2 271314Z 17007KT 27/18 A2987 RMK A01 T02670178  RH  058%=      5-min Rain = 0
KCA2 271315Z 17007KT 27/18 A2987 RMK A01 T02680178  RH  058%=      5-min Rain = 0
KCA2 271316Z 17007KT 27/18 A2987 RMK A01 T02680178  RH  058%=      5-min Rain = 0
KCA2 271317Z 16006KT 27/18 A2987 RMK A01 T02690179  RH  058%=      5-min Rain = 0
KCA2 271318Z 16006KT 27/18 A2987 RMK A01 T02710179  RH  057%=      5-min Rain = 0
KCA2 271319Z 16007KT 27/18 A2987 RMK A01 T02720179  RH  057%=      5-min Rain = 0
KCA2 271320Z 15008KT 27/18 A2987 RMK A01 T02730180  RH  057%=      5-min Rain = 0
KCA2 271321Z 16009KT 27/18 A2987 RMK A01 T02740180  RH  057%=      5-min Rain = 0
KCA2 271322Z 16008KT 27/18 A2987 RMK A01 T02740180  RH  056%=      5-min Rain = 0
KCA2 271323Z 16009KT 27/18 A2987 RMK A01 T02740180  RH  056%=      5-min Rain = 0
KCA2 271324Z 16007KT 27/18 A2987 RMK A01 T02740180  RH  056%=      5-min Rain = 0
KCA2 271325Z 15009KT 27/18 A2987 RMK A01 T02740179  RH  056%=      5-min Rain = 0
KCA2 271326Z 17008KT 28/18 A2987 RMK A01 T02750180  RH  056%=      5-min Rain = 0
KCA2 271327Z 17008KT 28/18 A2987 RMK A01 T02750180  RH  056%=      5-min Rain = 0
KCA2 271328Z 16010KT 28/18 A2987 RMK A01 T02750180  RH  056%=      5-min Rain = 0
KCA2 271329Z 15007KT 28/18 A2987 RMK A01 T02750180  RH  056%=      5-min Rain = 0
KCA2 271330Z 15009KT 28/18 A2987 RMK A01 T02750180  RH  056%=      5-min Rain = 0
KCA2 271331Z 16010KT 28/18 A2987 RMK A01 T02750180  RH  056%=      5-min Rain = 0
KCA2 271332Z 16009KT 28/18 A2987 RMK A01 T02750180  RH  056%=      5-min Rain = 0
KCA2 271333Z 16007KT 28/18 A2987 RMK A01 T02750180  RH  056%=      5-min Rain = 0
KCA2 271334Z 14007KT 28/18 A2987 RMK A01 T02760181  RH  056%=      5-min Rain = 0
KCA2 271335Z 15009KT 28/18 A2987 RMK A01 T02760180  RH  056%=      5-min Rain = 0
KCA2 271336Z 15009KT 28/18 A2987 RMK A01 T02760180  RH  056%=      5-min Rain = 0
KCA2 271337Z 14009KT 28/18 A2987 RMK A01 T02760180  RH  056%=      5-min Rain = 0
KCA2 271338Z 14007KT 28/18 A2987 RMK A01 T02760181  RH  056%=      5-min Rain = 0
KCA2 271339Z 13008KT 28/18 A2987 RMK A01 T02750180  RH  056%=      5-min Rain = 0
KCA2 271340Z 13009KT 28/18 A2987 RMK A01 T02760181  RH  056%=      5-min Rain = 0
KCA2 271341Z 14007KT 28/18 A2987 RMK A01 T02750181  RH  056%=      5-min Rain = 0
KCA2 271342Z 16008KT 28/18 A2987 RMK A01 T02750181  RH  057%=      5-min Rain = 0
KCA2 271343Z 16011KT 28/18 A2987 RMK A01 T02750180  RH  056%=      5-min Rain = 0
KCA2 271344Z 16008KT 28/18 A2987 RMK A01 T02760181  RH  056%=      5-min Rain = 0
KCA2 271345Z 16010KT 28/18 A2987 RMK A01 T02750181  RH  057%=      5-min Rain = 0
KCA2 271346Z 15010KT 28/18 A2987 RMK A01 T02750181  RH  057%=      5-min Rain = 0
KCA2 271347Z 16010KT 27/18 A2987 RMK A01 T02740181  RH  057%=      5-min Rain = 0
KCA2 271348Z 16010KT 27/18 A2987 RMK A01 T02740181  RH  057%=      5-min Rain = 0
KCA2 271349Z 15008KT 27/18 A2987 RMK A01 T02740181  RH  057%=      5-min Rain = 0
KCA2 271350Z 15006KT 27/18 A2987 RMK A01 T02740181  RH  057%=      5-min Rain = 0
KCA2 271351Z 15007KT 27/18 A2987 RMK A01 T02740181  RH  057%=      5-min Rain = 0
KCA2 271352Z 14006KT 28/18 A2987 RMK A01 T02750182  RH  057%=      5-min Rain = 0
KCA2 271353Z 15007KT 28/18 A2987 RMK A01 T02760182  RH  057%=      5-min Rain = 0
KCA2 271354Z 14007KT 28/18 A2987 RMK A01 T02760182  RH  056%=      5-min Rain = 0
KCA2 271355Z 14012KT 28/18 A2987 RMK A01 T02760182  RH  057%=      5-min Rain = 0
KCA2 271356Z 15013KT 28/18 A2987 RMK A01 T02760182  RH  057%=      5-min Rain = 0
KCA2 271357Z 15010KT 28/18 A2987 RMK A01 T02760182  RH  057%=      5-min Rain = 0
KCA2 271358Z 14011KT 28/18 A2987 RMK A01 T02760182  RH  057%=      5-min Rain = 0
KCA2 271359Z 14011KT 28/18 A2987 RMK A01 T02760182  RH  056%=      5-min Rain = 0
KCA2 271400Z 14010KT 28/18 A2987 RMK A01 T02770182  RH  056%=      5-min Rain = 0
KCA2 271401Z 14011KT 28/18 A2987 RMK A01 T02770183  RH  056%=      5-min Rain = 0
KCA2 271402Z 14009KT 28/18 A2987 RMK A01 T02770183  RH  057%=      5-min Rain = 0
KCA2 271403Z 14009KT 28/18 A2987 RMK A01 T02770183  RH  057%=      5-min Rain = 0
KCA2 271404Z 14008KT 28/18 A2987 RMK A01 T02770183  RH  057%=      5-min Rain = 0
KCA2 271405Z 14007KT 28/18 A2987 RMK A01 T02770183  RH  056%=      5-min Rain = 0
KCA2 271406Z 15007KT 28/18 A2987 RMK A01 T02770183  RH  056%=      5-min Rain = 0
KCA2 271407Z 14008KT 28/18 A2987 RMK A01 T02780183  RH  056%=      5-min Rain = 0
KCA2 271408Z 14006KT 28/18 A2987 RMK A01 T02780183  RH  056%=      5-min Rain = 0
KCA2 271409Z 15009KT 28/18 A2987 RMK A01 T02790183  RH  056%=      5-min Rain = 0
KCA2 271410Z 15008KT 28/18 A2987 RMK A01 T02790182  RH  056%=      5-min Rain = 0
KCA2 271411Z 13009KT 28/18 A2987 RMK A01 T02800183  RH  056%=      5-min Rain = 0
KCA2 271412Z 14010KT 28/18 A2987 RMK A01 T02800182  RH  055%=      5-min Rain = 0
KCA2 271413Z 14008KT 28/18 A2987 RMK A01 T02800183  RH  055%=      5-min Rain = 0
KCA2 271414Z 15006KT 28/18 A2987 RMK A01 T02800183  RH  056%=      5-min Rain = 0
KCA2 271415Z 16010KT 28/18 A2987 RMK A01 T02810183  RH  055%=      5-min Rain = 0
KCA2 271416Z 16009KT 28/18 A2987 RMK A01 T02820182  RH  055%=      5-min Rain = 0
KCA2 271417Z 15009KT 28/18 A2987 RMK A01 T02820183  RH  055%=      5-min Rain = 0
KCA2 271418Z 15009KT 28/18 A2987 RMK A01 T02830182  RH  054%=      5-min Rain = 0
KCA2 271419Z 16011KT 28/18 A2987 RMK A01 T02830182  RH  054%=      5-min Rain = 0
KCA2 271420Z 15011KT 28/18 A2987 RMK A01 T02830183  RH  055%=      5-min Rain = 0
KCA2 271421Z 15012KT 28/18 A2987 RMK A01 T02810183  RH  055%=      5-min Rain = 0
KCA2 271422Z 15012KT 28/18 A2987 RMK A01 T02810183  RH  055%=      5-min Rain = 0
KCA2 271423Z 16011KT 28/18 A2987 RMK A01 T02810182  RH  055%=      5-min Rain = 0
KCA2 271424Z 16012KT 28/18 A2987 RMK A01 T02810182  RH  055%=      5-min Rain = 0
KCA2 271425Z 14008KT 28/18 A2987 RMK A01 T02810182  RH  055%=      5-min Rain = 0
KCA2 271426Z 14008KT 28/18 A2987 RMK A01 T02810183  RH  055%=      5-min Rain = 0
KCA2 271427Z 14011KT 28/18 A2987 RMK A01 T02810183  RH  055%=      5-min Rain = 0
KCA2 271428Z 15010KT 28/18 A2987 RMK A01 T02810183  RH  055%=      5-min Rain = 0
KCA2 271429Z 15009KT 28/18 A2987 RMK A01 T02810182  RH  055%=      5-min Rain = 0
KCA2 271430Z 15008KT 28/18 A2987 RMK A01 T02810182  RH  055%=      5-min Rain = 0
KCA2 271431Z 14010KT 28/18 A2987 RMK A01 T02820182  RH  055%=      5-min Rain = 0
KCA2 271432Z 16009KT 28/18 A2987 RMK A01 T02830182  RH  055%=      5-min Rain = 0
KCA2 271433Z 14007KT 28/18 A2987 RMK A01 T02830182  RH  054%=      5-min Rain = 0
KCA2 271434Z 15005KT 28/18 A2987 RMK A01 T02840183  RH  054%=      5-min Rain = 0
KCA2 271435Z 14005KT 29/18 A2987 RMK A01 T02860183  RH  054%=      5-min Rain = 0
KCA2 271436Z 14006KT 29/18 A2987 RMK A01 T02880184  RH  053%=      5-min Rain = 0
KCA2 271437Z 14006KT 29/18 A2987 RMK A01 T02890184  RH  053%=      5-min Rain = 0
KCA2 271438Z 14007KT 29/18 A2987 RMK A01 T02880183  RH  053%=      5-min Rain = 0
KCA2 271439Z 14007KT 29/18 A2987 RMK A01 T02880184  RH  053%=      5-min Rain = 0
KCA2 271440Z 15009KT 29/18 A2987 RMK A01 T02890183  RH  053%=      5-min Rain = 0
KCA2 271441Z 15009KT 29/18 A2987 RMK A01 T02880183  RH  053%=      5-min Rain = 0
KCA2 271442Z 14009KT 29/18 A2987 RMK A01 T02870183  RH  053%=      5-min Rain = 0
KCA2 271443Z 16009KT 29/18 A2987 RMK A01 T02860183  RH  054%=      5-min Rain = 0
KCA2 271444Z 16010KT 29/18 A2987 RMK A01 T02850183  RH  054%=      5-min Rain = 0
KCA2 271445Z 16009KT 29/18 A2987 RMK A01 T02860182  RH  054%=      5-min Rain = 0
KCA2 271446Z 14009KT 29/18 A2987 RMK A01 T02870183  RH  053%=      5-min Rain = 0
KCA2 271447Z 13011KT 29/18 A2987 RMK A01 T02880183  RH  053%=      5-min Rain = 0
KCA2 271448Z 13010KT 29/18 A2987 RMK A01 T02880183  RH  053%=      5-min Rain = 0
KCA2 271449Z 14008KT 29/18 A2987 RMK A01 T02870183  RH  053%=      5-min Rain = 0
KCA2 271450Z 14008KT 29/18 A2987 RMK A01 T02860183  RH  054%=      5-min Rain = 0
KCA2 271451Z 13006KT 29/18 A2987 RMK A01 T02860183  RH  054%=      5-min Rain = 0
KCA2 271452Z 13008KT 29/18 A2987 RMK A01 T02870183  RH  053%=      5-min Rain = 0
KCA2 271453Z 13008KT 29/18 A2987 RMK A01 T02870183  RH  053%=      5-min Rain = 0
KCA2 271454Z 13009KT 29/18 A2987 RMK A01 T02880182  RH  053%=      5-min Rain = 0
KCA2 271455Z 14010KT 29/18 A2987 RMK A01 T02880182  RH  053%=      5-min Rain = 0
KCA2 271456Z 13010KT 29/18 A2987 RMK A01 T02880182  RH  053%=      5-min Rain = 0
KCA2 271457Z 13008KT 29/18 A2987 RMK A01 T02880182  RH  053%=      5-min Rain = 0
KCA2 271458Z 13011KT 29/18 A2987 RMK A01 T02890183  RH  053%=      5-min Rain = 0
KCA2 271459Z 14011KT 29/18 A2987 RMK A01 T02890182  RH  052%=      5-min Rain = 0
KCA2 271500Z 14010KT 29/18 A2987 RMK A01 T02890183  RH  053%=      5-min Rain = 0
KCA2 271501Z 15010KT 29/18 A2987 RMK A01 T02890182  RH  053%=      5-min Rain = 0
KCA2 271502Z 15009KT 29/18 A2987 RMK A01 T02900182  RH  052%=      5-min Rain = 0
KCA2 271503Z 14012KT 29/18 A2987 RMK A01 T02910181  RH  052%=      5-min Rain = 0
KCA2 271504Z 14009KT 29/18 A2987 RMK A01 T02910182  RH  052%=      5-min Rain = 0
KCA2 271505Z 14008KT 29/18 A2987 RMK A01 T02920182  RH  052%=      5-min Rain = 0
KCA2 271506Z 15010KT 29/18 A2987 RMK A01 T02930182  RH  051%=      5-min Rain = 0
KCA2 271507Z 15012KT 29/18 A2987 RMK A01 T02930181  RH  051%=      5-min Rain = 0
KCA2 271508Z 14010KT 29/18 A2987 RMK A01 T02930181  RH  051%=      5-min Rain = 0
KCA2 271509Z 15012KT 29/18 A2987 RMK A01 T02930181  RH  051%=      5-min Rain = 0
KCA2 271510Z 15011KT 29/18 A2987 RMK A01 T02930181  RH  051%=      5-min Rain = 0
KCA2 271511Z 15012KT 29/18 A2987 RMK A01 T02930181  RH  051%=      5-min Rain = 0
KCA2 271512Z 15011KT 29/18 A2987 RMK A01 T02920180  RH  051%=      5-min Rain = 0
KCA2 271513Z 15011KT 29/18 A2987 RMK A01 T02920181  RH  051%=      5-min Rain = 0
KCA2 271514Z 15010KT 29/18 A2987 RMK A01 T02920181  RH  051%=      5-min Rain = 0
KCA2 271515Z 14009KT 29/18 A2987 RMK A01 T02930180  RH  051%=      5-min Rain = 0
KCA2 271516Z 14010KT 29/18 A2987 RMK A01 T02940181  RH  051%=      5-min Rain = 0
KCA2 271517Z 15010KT 29/18 A2987 RMK A01 T02940181  RH  051%=      5-min Rain = 0
KCA2 271518Z 15010KT 29/18 A2987 RMK A01 T02940181  RH  051%=      5-min Rain = 0
KCA2 271519Z 16009KT 29/18 A2987 RMK A01 T02940181  RH  051%=      5-min Rain = 0
KCA2 271520Z 15010KT 30/18 A2987 RMK A01 T02950181  RH  050%=      5-min Rain = 0
KCA2 271521Z 16010KT 30/18 A2987 RMK A01 T02950182  RH  050%=      5-min Rain = 0
KCA2 271522Z 16010KT 30/18 A2987 RMK A01 T02960181  RH  050%=      5-min Rain = 0
KCA2 271523Z 15011KT 30/18 A2987 RMK A01 T02960182  RH  050%=      5-min Rain = 0
KCA2 271524Z 14011KT 30/18 A2987 RMK A01 T02960181  RH  050%=      5-min Rain = 0
KCA2 271525Z 13010KT 30/18 A2987 RMK A01 T02950182  RH  051%=      5-min Rain = 0
KCA2 271531Z 15011KT 30/18 A2987 RMK A01 T02960180  RH  050%=      5-min Rain = 0
KCA2 271532Z 16010KT 30/18 A2987 RMK A01 T02960180  RH  050%=      5-min Rain = 0
KCA2 271533Z 15009KT 30/18 A2987 RMK A01 T02960180  RH  050%=      5-min Rain = 0
KCA2 271534Z 16010KT 30/18 A2987 RMK A01 T02970180  RH  049%=      5-min Rain = 0
KCA2 271535Z 15010KT 30/18 A2987 RMK A01 T02990180  RH  049%=      5-min Rain = 0
KCA2 271536Z 14010KT 30/18 A2987 RMK A01 T03010179  RH  048%=      5-min Rain = 0
KCA2 271537Z 15010KT 30/18 A2987 RMK A01 T03010180  RH  048%=      5-min Rain = 0
KCA2 271538Z 14011KT 30/18 A2987 RMK A01 T03020180  RH  048%=      5-min Rain = 0
KCA2 271539Z 15009KT 30/18 A2987 RMK A01 T03020180  RH  048%=      5-min Rain = 0
KCA2 271540Z 15008KT 30/18 A2987 RMK A01 T03020182  RH  049%=      5-min Rain = 0
KCA2 271541Z 16010KT 30/18 A2987 RMK A01 T03040181  RH  048%=      5-min Rain = 0
KCA2 271542Z 16010KT 31/18 A2987 RMK A01 T03060181  RH  047%=      5-min Rain = 0
KCA2 271543Z 17010KT 31/18 A2987 RMK A01 T03060180  RH  047%=      5-min Rain = 0
KCA2 271544Z 15010KT 31/18 A2987 RMK A01 T03050179  RH  047%=      5-min Rain = 0
KCA2 271545Z 16009KT 31/18 A2987 RMK A01 T03050179  RH  047%=      5-min Rain = 0
KCA2 271546Z 16009KT 31/18 A2987 RMK A01 T03050179  RH  047%=      5-min Rain = 0
KCA2 271547Z 16010KT 31/18 A2987 RMK A01 T03060180  RH  047%=      5-min Rain = 0
KCA2 271548Z 17009KT 31/18 A2987 RMK A01 T03060180  RH  047%=      5-min Rain = 0
KCA2 271549Z 15009KT 31/18 A2986 RMK A01 T03070181  RH  047%=      5-min Rain = 0
KCA2 271550Z 15009KT 31/18 A2986 RMK A01 T03080180  RH  046%=      5-min Rain = 0
KCA2 271551Z 16010KT 31/18 A2986 RMK A01 T03080180  RH  046%=      5-min Rain = 0
KCA2 271552Z 15011KT 31/18 A2986 RMK A01 T03090180  RH  046%=      5-min Rain = 0
KCA2 271553Z 15011KT 31/18 A2986 RMK A01 T03090180  RH  046%=      5-min Rain = 0
KCA2 271554Z 16009KT 31/18 A2986 RMK A01 T03090181  RH  047%=      5-min Rain = 0
KCA2 271555Z 16011KT 31/18 A2986 RMK A01 T03080181  RH  047%=      5-min Rain = 0
KCA2 271556Z 15010KT 31/18 A2986 RMK A01 T03080181  RH  047%=      5-min Rain = 0
KCA2 271557Z 15010KT 31/18 A2986 RMK A01 T03100180  RH  046%=      5-min Rain = 0
KCA2 271558Z 14010KT 31/18 A2986 RMK A01 T03110180  RH  046%=      5-min Rain = 0
KCA2 271559Z 14008KT 31/18 A2986 RMK A01 T03110178  RH  045%=      5-min Rain = 0
KCA2 271600Z 15007KT 31/18 A2986 RMK A01 T03110179  RH  045%=      5-min Rain = 0
KCA2 271601Z 13008KT 31/18 A2986 RMK A01 T03120179  RH  045%=      5-min Rain = 0
KCA2 271602Z 16010KT 31/18 A2986 RMK A01 T03140180  RH  045%=      5-min Rain = 0
KCA2 271603Z 16009KT 32/18 A2986 RMK A01 T03160181  RH  045%=      5-min Rain = 0
KCA2 271604Z 16009KT 32/18 A2986 RMK A01 T03160181  RH  045%=      5-min Rain = 0
KCA2 271605Z 15011KT 32/18 A2986 RMK A01 T03170180  RH  044%=      5-min Rain = 0
KCA2 271606Z 14010KT 32/18 A2986 RMK A01 T03170179  RH  044%=      5-min Rain = 0
KCA2 271607Z 14009KT 32/18 A2986 RMK A01 T03160179  RH  044%=      5-min Rain = 0
KCA2 271608Z 14009KT 32/18 A2986 RMK A01 T03160180  RH  044%=      5-min Rain = 0
KCA2 271609Z 14011KT 32/18 A2986 RMK A01 T03150179  RH  044%=      5-min Rain = 0
KCA2 271610Z 15011KT 32/18 A2986 RMK A01 T03160178  RH  044%=      5-min Rain = 0
KCA2 271611Z 15008KT 32/18 A2986 RMK A01 T03160177  RH  044%=      5-min Rain = 0
KCA2 271612Z 16008KT 32/18 A2986 RMK A01 T03170176  RH  043%=      5-min Rain = 0
KCA2 271613Z 14008KT 32/18 A2986 RMK A01 T03160176  RH  043%=      5-min Rain = 0
KCA2 271614Z 14005KT 32/18 A2986 RMK A01 T03170177  RH  043%=      5-min Rain = 0
KCA2 271615Z 14007KT 32/18 A2986 RMK A01 T03200179  RH  043%=      5-min Rain = 0
KCA2 271616Z 14008KT 32/18 A2986 RMK A01 T03240178  RH  042%=      5-min Rain = 0
KCA2 271617Z 14009KT 33/18 A2986 RMK A01 T03250178  RH  042%=      5-min Rain = 0
KCA2 271618Z 14010KT 33/18 A2986 RMK A01 T03250178  RH  042%=      5-min Rain = 0
KCA2 271619Z 14010KT 32/18 A2986 RMK A01 T03240177  RH  042%=      5-min Rain = 0
KCA2 271620Z 15010KT 32/18 A2986 RMK A01 T03230176  RH  042%=      5-min Rain = 0
KCA2 271621Z 13008KT 32/18 A2986 RMK A01 T03210176  RH  042%=      5-min Rain = 0
KCA2 271622Z 14009KT 32/17 A2986 RMK A01 T03210173  RH  041%=      5-min Rain = 0
KCA2 271623Z 14006KT 32/17 A2986 RMK A01 T03200172  RH  041%=      5-min Rain = 0
KCA2 271624Z 12006KT 32/17 A2985 RMK A01 T03190171  RH  041%=      5-min Rain = 0
KCA2 271625Z 13007KT 32/17 A2985 RMK A01 T03200172  RH  041%=      5-min Rain = 0
KCA2 271626Z 12010KT 32/17 A2985 RMK A01 T03220174  RH  041%=      5-min Rain = 0
KCA2 271627Z 14008KT 32/18 A2985 RMK A01 T03240176  RH  041%=      5-min Rain = 0
KCA2 271628Z 13009KT 33/18 A2985 RMK A01 T03270177  RH  041%=      5-min Rain = 0
KCA2 271629Z 14009KT 33/17 A2985 RMK A01 T03270172  RH  039%=      5-min Rain = 0
KCA2 271630Z 14011KT 33/17 A2985 RMK A01 T03260171  RH  040%=      5-min Rain = 0
KCA2 271631Z 13010KT 33/17 A2985 RMK A01 T03260171  RH  040%=      5-min Rain = 0
KCA2 271632Z 12007KT 33/17 A2985 RMK A01 T03270172  RH  039%=      5-min Rain = 0
KCA2 271633Z 12008KT 33/17 A2985 RMK A01 T03260173  RH  040%=      5-min Rain = 0
KCA2 271634Z 12008KT 33/17 A2985 RMK A01 T03260172  RH  040%=      5-min Rain = 0
KCA2 271635Z 12009KT 33/17 A2985 RMK A01 T03260172  RH  040%=      5-min Rain = 0
KCA2 271636Z 12010KT 33/17 A2985 RMK A01 T03270169  RH  039%=      5-min Rain = 0
KCA2 271637Z 14009KT 33/17 A2985 RMK A01 T03290170  RH  039%=      5-min Rain = 0
KCA2 271638Z 14008KT 33/17 A2985 RMK A01 T03320170  RH  038%=      5-min Rain = 0
KCA2 271639Z 15012KT 34/17 A2984 RMK A01 T03350172  RH  038%=      5-min Rain = 0
KCA2 271640Z 15008KT 33/17 A2985 RMK A01 T03330171  RH  038%=      5-min Rain = 0
KCA2 271641Z 15007KT 33/17 A2984 RMK A01 T03320172  RH  039%=      5-min Rain = 0
KCA2 271642Z 14010KT 33/17 A2984 RMK A01 T03330171  RH  038%=      5-min Rain = 0
KCA2 271643Z 13009KT 34/17 A2984 RMK A01 T03350172  RH  038%=      5-min Rain = 0
KCA2 271644Z 13012KT 34/17 A2984 RMK A01 T03360165  RH  036%=      5-min Rain = 0
KCA2 271645Z 14009KT 34/16 A2984 RMK A01 T03350162  RH  035%=      5-min Rain = 0
KCA2 271646Z 14009KT 33/16 A2984 RMK A01 T03340164  RH  036%=      5-min Rain = 0
KCA2 271647Z 13008KT 34/17 A2984 RMK A01 T03350166  RH  037%=      5-min Rain = 0
KCA2 271648Z 14007KT 34/16 A2984 RMK A01 T03380164  RH  035%=      5-min Rain = 0
KCA2 271649Z 13006KT 34/17 A2984 RMK A01 T03380165  RH  036%=      5-min Rain = 0
KCA2 271650Z 13005KT 34/16 A2984 RMK A01 T03390163  RH  035%=      5-min Rain = 0
KCA2 271651Z 11007KT 34/16 A2984 RMK A01 T03420160  RH  034%=      5-min Rain = 0
KCA2 271652Z 13011KT 34/16 A2984 RMK A01 T03400157  RH  033%=      5-min Rain = 0
KCA2 271653Z 14010KT 34/15 A2984 RMK A01 T03370153  RH  033%=      5-min Rain = 0
KCA2 271654Z 14010KT 34/15 A2984 RMK A01 T03370153  RH  033%=      5-min Rain = 0
KCA2 271655Z 13012KT 34/15 A2984 RMK A01 T03380153  RH  033%=      5-min Rain = 0
KCA2 271656Z 13009KT 34/15 A2984 RMK A01 T03360151  RH  033%=      5-min Rain = 0
KCA2 271657Z 13009KT 34/15 A2984 RMK A01 T03370146  RH  032%=      5-min Rain = 0
KCA2 271658Z 13009G16KT 34/15 A2984 RMK A01 T03380148  RH  032%=      5-min Rain = 0
KCA2 271659Z 13013KT 34/14 A2983 RMK A01 T03400138  RH  030%=      5-min Rain = 0
KCA2 271700Z 12012KT 34/14 A2983 RMK A01 T03410138  RH  029%=      5-min Rain = 0
KCA2 271701Z 13010KT 34/15 A2983 RMK A01 T03400147  RH  031%=      5-min Rain = 0
KCA2 271702Z 12009KT 34/15 A2983 RMK A01 T03380148  RH  032%=      5-min Rain = 0
KCA2 271703Z 13009KT 34/14 A2983 RMK A01 T03380144  RH  031%=      5-min Rain = 0
KCA2 271704Z 12010KT 34/15 A2983 RMK A01 T03390145  RH  031%=      5-min Rain = 0
KCA2 271705Z 10009KT 34/15 A2983 RMK A01 T03390149  RH  032%=      5-min Rain = 0
KCA2 271706Z 11008KT 34/15 A2983 RMK A01 T03410147  RH  031%=      5-min Rain = 0
KCA2 271707Z 13008KT 35/15 A2983 RMK A01 T03450147  RH  031%=      5-min Rain = 0
KCA2 271708Z 11010KT 34/15 A2983 RMK A01 T03440148  RH  031%=      5-min Rain = 0
KCA2 271709Z 10010KT 35/14 A2983 RMK A01 T03450143  RH  030%=      5-min Rain = 0
KCA2 271710Z 11008KT 35/14 A2983 RMK A01 T03450138  RH  029%=      5-min Rain = 0
KCA2 271711Z 14009KT 35/14 A2983 RMK A01 T03480138  RH  028%=      5-min Rain = 0
KCA2 271712Z 14010KT 35/14 A2983 RMK A01 T03490139  RH  028%=      5-min Rain = 0
KCA2 271713Z 13009KT 35/14 A2983 RMK A01 T03470135  RH  028%=      5-min Rain = 0
KCA2 271714Z 11008KT 35/13 A2983 RMK A01 T03460132  RH  028%=      5-min Rain = 0
KCA2 271715Z 10007KT 35/13 A2982 RMK A01 T03450132  RH  028%=      5-min Rain = 0
KCA2 271716Z 11007KT 35/13 A2982 RMK A01 T03460133  RH  028%=      5-min Rain = 0
KCA2 271717Z 13006KT 35/13 A2982 RMK A01 T03500131  RH  027%=      5-min Rain = 0
KCA2 271718Z 12010KT 35/13 A2982 RMK A01 T03510130  RH  027%=      5-min Rain = 0
KCA2 271719Z 14010KT 35/13 A2982 RMK A01 T03510133  RH  027%=      5-min Rain = 0
KCA2 271720Z 14010KT 35/13 A2982 RMK A01 T03510134  RH  027%=      5-min Rain = 0
KCA2 271721Z 14010KT 35/13 A2982 RMK A01 T03520130  RH  026%=      5-min Rain = 0
KCA2 271722Z 12007KT 35/13 A2982 RMK A01 T03540128  RH  026%=      5-min Rain = 0
KCA2 271723Z 11008KT 35/13 A2982 RMK A01 T03540127  RH  026%=      5-min Rain = 0
KCA2 271724Z 12011KT 36/13 A2982 RMK A01 T03550130  RH  026%=      5-min Rain = 0
KCA2 271725Z 13011KT 36/12 A2982 RMK A01 T03580120  RH  024%=      5-min Rain = 0
KCA2 271726Z 12009KT 36/12 A2982 RMK A01 T03580119  RH  024%=      5-min Rain = 0
KCA2 271727Z 13009KT 36/12 A2982 RMK A01 T03570118  RH  024%=      5-min Rain = 0
KCA2 271728Z 11010KT 36/12 A2982 RMK A01 T03570117  RH  023%=      5-min Rain = 0
KCA2 271729Z 12009KT 36/12 A2982 RMK A01 T03580116  RH  023%=      5-min Rain = 0
KCA2 271730Z 11010KT 36/12 A2982 RMK A01 T03570115  RH  023%=      5-min Rain = 0
KCA2 271731Z 11010KT 36/11 A2981 RMK A01 T03560113  RH  023%=      5-min Rain = 0
KCA2 271732Z 13013KT 36/12 A2982 RMK A01 T03560119  RH  024%=      5-min Rain = 0
KCA2 271733Z 13012KT 36/12 A2982 RMK A01 T03570124  RH  025%=      5-min Rain = 0
KCA2 271734Z 13010KT 36/12 A2982 RMK A01 T03580120  RH  024%=      5-min Rain = 0
KCA2 271735Z 14009KT 36/12 A2981 RMK A01 T03570119  RH  024%=      5-min Rain = 0
KCA2 271736Z 13007KT 36/12 A2981 RMK A01 T03560120  RH  024%=      5-min Rain = 0
KCA2 271737Z 13009KT 36/12 A2981 RMK A01 T03560120  RH  024%=      5-min Rain = 0
KCA2 271738Z 13007KT 36/11 A2981 RMK A01 T03590114  RH  023%=      5-min Rain = 0
KCA2 271739Z 13006KT 36/11 A2981 RMK A01 T03560112  RH  023%=      5-min Rain = 0
KCA2 271740Z 10008KT 36/12 A2981 RMK A01 T03550115  RH  023%=      5-min Rain = 0
KCA2 271741Z 13008KT 36/11 A2981 RMK A01 T03580113  RH  023%=      5-min Rain = 0
KCA2 271742Z 10009G14KT 36/11 A2981 RMK A01 T03600110  RH  022%=      5-min Rain = 0
KCA2 271743Z 10008G13KT 36/11 A2981 RMK A01 T03590111  RH  022%=      5-min Rain = 0
KCA2 271744Z 11011KT 36/11 A2981 RMK A01 T03570113  RH  023%=      5-min Rain = 0
KCA2 271745Z 11011KT 36/12 A2981 RMK A01 T03590119  RH  024%=      5-min Rain = 0
KCA2 271746Z 10011KT 36/12 A2981 RMK A01 T03580120  RH  024%=      5-min Rain = 0
KCA2 271747Z 10009KT 36/12 A2981 RMK A01 T03580119  RH  024%=      5-min Rain = 0
KCA2 271748Z 10006KT 36/12 A2981 RMK A01 T03590119  RH  023%=      5-min Rain = 0
KCA2 271749Z 07004KT 36/11 A2981 RMK A01 T03610114  RH  023%=      5-min Rain = 0
KCA2 271750Z 12007KT 36/11 A2981 RMK A01 T03600112  RH  022%=      5-min Rain = 0
KCA2 271751Z 12008KT 36/11 A2981 RMK A01 T03610112  RH  022%=      5-min Rain = 0
KCA2 271752Z 13011KT 36/11 A2981 RMK A01 T03630111  RH  022%=      5-min Rain = 0
KCA2 271753Z 14012KT 36/11 A2981 RMK A01 T03640113  RH  022%=      5-min Rain = 0
KCA2 271754Z 13008KT 37/11 A2981 RMK A01 T03650114  RH  022%=      5-min Rain = 0
KCA2 271755Z 15007KT 37/12 A298 RMK A01 T03650115  RH  022%=      5-min Rain = 0
KCA2 271756Z 16007KT 37/12 A298 RMK A01 T03660116  RH  022%=      5-min Rain = 0
KCA2 271757Z 17011G16KT 36/11 A298 RMK A01 T03640114  RH  022%=      5-min Rain = 0
KCA2 271758Z 16009KT 36/11 A298 RMK A01 T03640112  RH  022%=      5-min Rain = 0
KCA2 271759Z 11007KT 36/11 A298 RMK A01 T03630113  RH  022%=      5-min Rain = 0
KCA2 271800Z 09005KT 36/11 A298 RMK A01 T03630113  RH  022%=      5-min Rain = 0
KCA2 271801Z 07003KT 36/11 A298 RMK A01 T03600110  RH  022%=      5-min Rain = 0
KCA2 271802Z 12006KT 36/11 A298 RMK A01 T03580108  RH  022%=      5-min Rain = 0
KCA2 271803Z 14005KT 36/10 A298 RMK A01 T03590104  RH  021%=      5-min Rain = 0
KCA2 271804Z 10008KT 36/11 A298 RMK A01 T03610107  RH  022%=      5-min Rain = 0
KCA2 271805Z 13005KT 37/11 A298 RMK A01 T03660108  RH  021%=      5-min Rain = 0
KCA2 271806Z 14006KT 37/11 A298 RMK A01 T03650108  RH  021%=      5-min Rain = 0
KCA2 271807Z 14006KT 36/11 A298 RMK A01 T03640109  RH  021%=      5-min Rain = 0
KCA2 271808Z 13007KT 37/11 A298 RMK A01 T03660110  RH  021%=      5-min Rain = 0
KCA2 271809Z 15008KT 37/11 A2979 RMK A01 T03690112  RH  021%=      5-min Rain = 0
KCA2 271810Z 17007KT 37/11 A2979 RMK A01 T03720111  RH  021%=      5-min Rain = 0
KCA2 271811Z 16003KT 37/11 A2979 RMK A01 T03700110  RH  021%=      5-min Rain = 0
KCA2 271812Z 10006G11KT 37/11 A2979 RMK A01 T03680110  RH  021%=      5-min Rain = 0
KCA2 271813Z 11007KT 37/11 A2979 RMK A01 T03720107  RH  020%=      5-min Rain = 0
KCA2 271814Z 13012KT 38/11 A2979 RMK A01 T03760107  RH  020%=      5-min Rain = 0
KCA2 271815Z 12011G16KT 38/10 A2979 RMK A01 T03750103  RH  019%=      5-min Rain = 0
KCA2 271816Z 14014KT 37/10 A2979 RMK A01 T03730102  RH  020%=      5-min Rain = 0
KCA2 271817Z 15010KT 37/10 A2979 RMK A01 T03710101  RH  020%=      5-min Rain = 0
KCA2 271818Z 18007KT 37/10 A2979 RMK A01 T03710099  RH  019%=      5-min Rain = 0
KCA2 271819Z 15011KT 38/10 A2979 RMK A01 T03750102  RH  019%=      5-min Rain = 0
KCA2 271820Z 15003KT 37/10 A2979 RMK A01 T03720099  RH  019%=      5-min Rain = 0
KCA2 271821Z 30007KT 36/09 A2979 RMK A01 T03640091  RH  019%=      5-min Rain = 0
KCA2 271822Z 28006KT 36/09 A2978 RMK A01 T03620093  RH  019%=      5-min Rain = 0
KCA2 271823Z 32001KT 36/10 A2978 RMK A01 T03630098  RH  020%=      5-min Rain = 0
KCA2 271824Z 07002KT 37/10 A2978 RMK A01 T03650100  RH  020%=      5-min Rain = 0
KCA2 271825Z 11006KT 37/10 A2978 RMK A01 T03700100  RH  020%=      5-min Rain = 0
KCA2 271826Z 11009KT 38/10 A2978 RMK A01 T03750100  RH  019%=      5-min Rain = 0
KCA2 271827Z 11011KT 38/10 A2978 RMK A01 T03760099  RH  019%=      5-min Rain = 0
KCA2 271828Z 11010KT 37/10 A2978 RMK A01 T03740099  RH  019%=      5-min Rain = 0
KCA2 271829Z 12012KT 38/10 A2978 RMK A01 T03760101  RH  019%=      5-min Rain = 0
KCA2 271830Z 13014KT 38/10 A2978 RMK A01 T03800099  RH  018%=      5-min Rain = 0
KCA2 271831Z 13009KT 38/10 A2978 RMK A01 T03790098  RH  018%=      5-min Rain = 0
KCA2 271832Z 14008KT 38/10 A2978 RMK A01 T03770097  RH  018%=      5-min Rain = 0
KCA2 271833Z 14006KT 38/10 A2978 RMK A01 T03750096  RH  018%=      5-min Rain = 0
KCA2 271834Z 19006KT 37/09 A2978 RMK A01 T03740094  RH  018%=      5-min Rain = 0
KCA2 271835Z 20005KT 37/09 A2977 RMK A01 T03730094  RH  018%=      5-min Rain = 0
KCA2 271836Z 15008KT 38/10 A2977 RMK A01 T03760096  RH  018%=      5-min Rain = 0
KCA2 271837Z 12009KT 38/10 A2977 RMK A01 T03790096  RH  018%=      5-min Rain = 0
KCA2 271838Z 12010KT 38/09 A2977 RMK A01 T03800093  RH  018%=      5-min Rain = 0
KCA2 271839Z 14008KT 38/09 A2977 RMK A01 T03820094  RH  018%=      5-min Rain = 0
KCA2 271840Z 11009KT 39/09 A2977 RMK A01 T03850093  RH  017%=      5-min Rain = 0
KCA2 271841Z 12007KT 38/09 A2977 RMK A01 T03840093  RH  017%=      5-min Rain = 0
KCA2 271842Z 11009KT 39/09 A2977 RMK A01 T03860093  RH  017%=      5-min Rain = 0
KCA2 271843Z 14011KT 39/09 A2977 RMK A01 T03870092  RH  017%=      5-min Rain = 0
KCA2 271844Z 13010KT 39/09 A2977 RMK A01 T03850087  RH  017%=      5-min Rain = 0
KCA2 271845Z 14007KT 38/09 A2977 RMK A01 T03790086  RH  017%=      5-min Rain = 0
KCA2 271846Z 09009KT 38/09 A2977 RMK A01 T03780085  RH  017%=      5-min Rain = 0
KCA2 271847Z 09007KT 38/08 A2977 RMK A01 T03790084  RH  017%=      5-min Rain = 0
KCA2 271848Z 11007KT 38/09 A2977 RMK A01 T03780089  RH  017%=      5-min Rain = 0
KCA2 271849Z 14006KT 38/09 A2977 RMK A01 T03780092  RH  018%=      5-min Rain = 0
KCA2 271850Z 10006G11KT 38/09 A2977 RMK A01 T03800092  RH  017%=      5-min Rain = 0
KCA2 271851Z 09011KT 38/08 A2977 RMK A01 T03840084  RH  016%=      5-min Rain = 0
KCA2 271852Z 11008KT 38/08 A2977 RMK A01 T03830083  RH  016%=      5-min Rain = 0
KCA2 271853Z 10008KT 38/08 A2976 RMK A01 T03810080  RH  016%=      5-min Rain = 0
KCA2 271854Z 11006KT 38/08 A2976 RMK A01 T03780079  RH  016%=      5-min Rain = 0
KCA2 271855Z 11009G19KT 38/09 A2976 RMK A01 T03830088  RH  017%=      5-min Rain = 0
KCA2 271856Z 12016KT 39/09 A2976 RMK A01 T03880091  RH  017%=      5-min Rain = 0
KCA2 271857Z 13016G21KT 38/09 A2976 RMK A01 T03840090  RH  017%=      5-min Rain = 0
KCA2 271858Z 14014KT 38/09 A2976 RMK A01 T03840092  RH  017%=      5-min Rain = 0
KCA2 271859Z 16018KT 39/09 A2976 RMK A01 T03860092  RH  017%=      5-min Rain = 0
KCA2 271900Z 16015KT 38/09 A2976 RMK A01 T03830091  RH  017%=      5-min Rain = 0
KCA2 271901Z 17010KT 38/09 A2976 RMK A01 T03800091  RH  017%=      5-min Rain = 0
KCA2 271902Z 17009KT 38/09 A2976 RMK A01 T03830093  RH  017%=      5-min Rain = 0
KCA2 271903Z 16006KT 38/09 A2976 RMK A01 T03820093  RH  018%=      5-min Rain = 0
KCA2 271904Z 20001KT 38/09 A2975 RMK A01 T03770093  RH  018%=      5-min Rain = 0
KCA2 271905Z 16003KT 38/09 A2975 RMK A01 T03750093  RH  018%=      5-min Rain = 0
KCA2 271906Z 14011G17KT 38/09 A2975 RMK A01 T03780092  RH  018%=      5-min Rain = 0
KCA2 271907Z 11015KT 38/09 A2975 RMK A01 T03840089  RH  017%=      5-min Rain = 0
KCA2 271908Z 09009G18KT 39/08 A2975 RMK A01 T03850083  RH  016%=      5-min Rain = 0
KCA2 271909Z 09003KT 38/08 A2975 RMK A01 T03780081  RH  016%=      5-min Rain = 0
KCA2 271910Z 11012KT 38/09 A2975 RMK A01 T03780087  RH  017%=      5-min Rain = 0
KCA2 271911Z 14012KT 38/09 A2975 RMK A01 T03840089  RH  017%=      5-min Rain = 0
KCA2 271912Z 15010KT 39/09 A2975 RMK A01 T03870089  RH  017%=      5-min Rain = 0
KCA2 271913Z 15014KT 39/09 A2975 RMK A01 T03880088  RH  016%=      5-min Rain = 0
KCA2 271914Z 14013G18KT 39/09 A2975 RMK A01 T03860086  RH  016%=      5-min Rain = 0
KCA2 271915Z 13012KT 39/09 A2975 RMK A01 T03860086  RH  016%=      5-min Rain = 0
KCA2 271916Z 15011G17KT 39/08 A2975 RMK A01 T03860084  RH  016%=      5-min Rain = 0
KCA2 271917Z 13011KT 38/08 A2975 RMK A01 T03840084  RH  016%=      5-min Rain = 0
KCA2 271918Z 13008KT 38/09 A2975 RMK A01 T03820085  RH  017%=      5-min Rain = 0
KCA2 271919Z 15005KT 38/09 A2975 RMK A01 T03800085  RH  017%=      5-min Rain = 0
KCA2 271920Z 17004KT 38/09 A2975 RMK A01 T03820085  RH  017%=      5-min Rain = 0
KCA2 271921Z 10003KT 38/09 A2975 RMK A01 T03800085  RH  017%=      5-min Rain = 0
KCA2 271922Z 08009G14KT 38/09 A2975 RMK A01 T03790085  RH  017%=      5-min Rain = 0
KCA2 271923Z 10006KT 38/09 A2974 RMK A01 T03790085  RH  017%=      5-min Rain = 0
KCA2 271924Z 08006G14KT 38/09 A2974 RMK A01 T03800085  RH  017%=      5-min Rain = 0
KCA2 271925Z 13011KT 38/09 A2974 RMK A01 T03830087  RH  017%=      5-min Rain = 0
KCA2 271926Z 10007KT 39/09 A2974 RMK A01 T03860086  RH  016%=      5-min Rain = 0
KCA2 271927Z 12008KT 39/09 A2974 RMK A01 T03880086  RH  016%=      5-min Rain = 0
KCA2 271928Z 10012G18KT 39/09 A2974 RMK A01 T03880087  RH  016%=      5-min Rain = 0
KCA2 271929Z 11015KT 39/09 A2974 RMK A01 T03890086  RH  016%=      5-min Rain = 0
KCA2 271930Z 10014KT 39/09 A2974 RMK A01 T03880085  RH  016%=      5-min Rain = 0
KCA2 271931Z 09013KT 39/08 A2974 RMK A01 T03860082  RH  016%=      5-min Rain = 0
KCA2 271932Z 09015G20KT 38/08 A2974 RMK A01 T03820081  RH  016%=      5-min Rain = 0
KCA2 271933Z 10010G15KT 38/08 A2974 RMK A01 T03810082  RH  016%=      5-min Rain = 0
KCA2 271934Z 09011KT 38/08 A2974 RMK A01 T03840084  RH  016%=      5-min Rain = 0
KCA2 271935Z 08009KT 39/09 A2973 RMK A01 T03870085  RH  016%=      5-min Rain = 0
KCA2 271936Z 10010KT 39/08 A2973 RMK A01 T03890084  RH  016%=      5-min Rain = 0
KCA2 271937Z 10009KT 39/08 A2974 RMK A01 T03880084  RH  016%=      5-min Rain = 0
KCA2 271938Z 11009G15KT 39/08 A2973 RMK A01 T03850083  RH  016%=      5-min Rain = 0
KCA2 271939Z 13013KT 39/08 A2973 RMK A01 T03880083  RH  016%=      5-min Rain = 0
KCA2 271940Z 14010KT 39/08 A2973 RMK A01 T03890083  RH  016%=      5-min Rain = 0
KCA2 271941Z 14009KT 39/08 A2973 RMK A01 T03880083  RH  016%=      5-min Rain = 0
KCA2 271942Z 13007KT 39/08 A2973 RMK A01 T03880082  RH  016%=      5-min Rain = 0
KCA2 271943Z 11007KT 39/08 A2973 RMK A01 T03900082  RH  016%=      5-min Rain = 0
KCA2 271944Z 09008KT 39/08 A2973 RMK A01 T03900080  RH  015%=      5-min Rain = 0
KCA2 271945Z 07008KT 39/08 A2973 RMK A01 T03870078  RH  015%=      5-min Rain = 0
KCA2 271946Z 09007KT 39/08 A2973 RMK A01 T03890080  RH  015%=      5-min Rain = 0
KCA2 271947Z 09007KT 39/08 A2973 RMK A01 T03930080  RH  015%=      5-min Rain = 0
KCA2 271948Z 11003KT 39/08 A2973 RMK A01 T03890078  RH  015%=      5-min Rain = 0
KCA2 271949Z 08001KT 39/08 A2973 RMK A01 T03850077  RH  015%=      5-min Rain = 0
KCA2 271950Z 10001KT 38/08 A2972 RMK A01 T03840078  RH  016%=      5-min Rain = 0
KCA2 271951Z 12004G11KT 38/08 A2973 RMK A01 T03840079  RH  016%=      5-min Rain = 0
KCA2 271952Z 15010G15KT 39/08 A2972 RMK A01 T03850080  RH  016%=      5-min Rain = 0
KCA2 271953Z 20009KT 39/08 A2972 RMK A01 T03870079  RH  016%=      5-min Rain = 0
KCA2 271954Z 23004G9KT 39/08 A2972 RMK A01 T03880076  RH  015%=      5-min Rain = 0
KCA2 271955Z 13004G9KT 38/08 A2972 RMK A01 T03840076  RH  015%=      5-min Rain = 0
KCA2 271956Z 12009KT 38/08 A2972 RMK A01 T03830077  RH  016%=      5-min Rain = 0
KCA2 271957Z 14012G17KT 38/08 A2972 RMK A01 T03840078  RH  016%=      5-min Rain = 0
KCA2 271958Z 12009KT 38/08 A2972 RMK A01 T03830078  RH  016%=      5-min Rain = 0
KCA2 271959Z 11009KT 38/08 A2972 RMK A01 T03830079  RH  016%=      5-min Rain = 0
KCA2 272000Z 09011KT 38/08 A2972 RMK A01 T03830079  RH  016%=      5-min Rain = 0
KCA2 272001Z 10011KT 38/08 A2972 RMK A01 T03830078  RH  016%=      5-min Rain = 0
KCA2 272002Z 10012KT 38/08 A2971 RMK A01 T03800077  RH  016%=      5-min Rain = 0
KCA2 272003Z 09010KT 38/08 A2972 RMK A01 T03790077  RH  016%=      5-min Rain = 0
KCA2 272004Z 09006KT 38/08 A2972 RMK A01 T03780077  RH  016%=      5-min Rain = 0
KCA2 272005Z 11005KT 38/08 A2971 RMK A01 T03780077  RH  016%=      5-min Rain = 0
KCA2 272006Z 09005KT 38/08 A2971 RMK A01 T03790078  RH  016%=      5-min Rain = 0
KCA2 272007Z 10007G12KT 38/08 A2971 RMK A01 T03800077  RH  016%=      5-min Rain = 0
KCA2 272008Z 10011KT 38/08 A2971 RMK A01 T03810077  RH  016%=      5-min Rain = 0
KCA2 272009Z 10009G14KT 38/08 A2971 RMK A01 T03820077  RH  016%=      5-min Rain = 0
KCA2 272010Z 10007KT 38/08 A2971 RMK A01 T03810077  RH  016%=      5-min Rain = 0
KCA2 272011Z 08010KT 38/08 A2971 RMK A01 T03820076  RH  016%=      5-min Rain = 0
KCA2 272012Z 08005KT 38/07 A2971 RMK A01 T03830074  RH  015%=      5-min Rain = 0
KCA2 272013Z 05006KT 38/07 A2971 RMK A01 T03820074  RH  015%=      5-min Rain = 0
KCA2 272014Z 04006KT 38/07 A2971 RMK A01 T03820074  RH  015%=      5-min Rain = 0
KCA2 272015Z 07010KT 38/07 A297 RMK A01 T03830073  RH  015%=      5-min Rain = 0
KCA2 272016Z 12008KT 39/07 A297 RMK A01 T03850074  RH  015%=      5-min Rain = 0
KCA2 272017Z 10009KT 39/07 A297 RMK A01 T03860073  RH  015%=      5-min Rain = 0
KCA2 272018Z 09008KT 39/07 A2971 RMK A01 T03860071  RH  015%=      5-min Rain = 0
KCA2 272019Z 09005KT 39/07 A297 RMK A01 T03850070  RH  015%=      5-min Rain = 0
KCA2 272020Z 23004KT 39/07 A297 RMK A01 T03850071  RH  015%=      5-min Rain = 0
KCA2 272021Z 19007KT 39/07 A297 RMK A01 T03870069  RH  015%=      5-min Rain = 0
KCA2 272022Z 17009KT 39/06 A297 RMK A01 T03870062  RH  014%=      5-min Rain = 0
KCA2 272023Z 15008KT 39/06 A2971 RMK A01 T03870060  RH  014%=      5-min Rain = 0
KCA2 272024Z 09004KT 39/06 A297 RMK A01 T03860059  RH  014%=      5-min Rain = 0
KCA2 272025Z 13002KT 38/06 A297 RMK A01 T03840058  RH  014%=      5-min Rain = 0
KCA2 272026Z 15004KT 39/06 A297 RMK A01 T03850057  RH  013%=      5-min Rain = 0
KCA2 272027Z 16003KT 39/05 A297 RMK A01 T03860053  RH  013%=      5-min Rain = 0
KCA2 272028Z 15004KT 39/05 A297 RMK A01 T03860053  RH  013%=      5-min Rain = 0
KCA2 272029Z 14001KT 39/06 A297 RMK A01 T03870056  RH  013%=      5-min Rain = 0
KCA2 272030Z 32000KT 39/06 A297 RMK A01 T03880057  RH  013%=      5-min Rain = 0
KCA2 272031Z 09001KT 39/06 A297 RMK A01 T03890057  RH  013%=      5-min Rain = 0
KCA2 272032Z 08001KT 39/06 A297 RMK A01 T03890056  RH  013%=      5-min Rain = 0
KCA2 272033Z 11001KT 39/06 A297 RMK A01 T03870056  RH  013%=      5-min Rain = 0
KCA2 272034Z 17001KT 39/06 A2969 RMK A01 T03870056  RH  013%=      5-min Rain = 0
KCA2 272035Z 21001KT 39/06 A2969 RMK A01 T03870055  RH  013%=      5-min Rain = 0
KCA2 272036Z 16003KT 39/06 A2969 RMK A01 T03870056  RH  013%=      5-min Rain = 0
KCA2 272037Z 15005KT 39/06 A2969 RMK A01 T03880058  RH  013%=      5-min Rain = 0
KCA2 272038Z 13003KT 39/06 A2969 RMK A01 T03880058  RH  013%=      5-min Rain = 0
KCA2 272039Z 09005KT 39/06 A2969 RMK A01 T03890060  RH  013%=      5-min Rain = 0
KCA2 272040Z 10005KT 39/06 A2969 RMK A01 T03890059  RH  013%=      5-min Rain = 0
KCA2 272041Z 13003KT 39/06 A2969 RMK A01 T03870059  RH  014%=      5-min Rain = 0
KCA2 272042Z 11005KT 39/06 A2969 RMK A01 T03870061  RH  014%=      5-min Rain = 0
KCA2 272043Z 10006KT 39/06 A2969 RMK A01 T03870062  RH  014%=      5-min Rain = 0
KCA2 272044Z 09008KT 39/06 A2969 RMK A01 T03880063  RH  014%=      5-min Rain = 0
KCA2 272045Z 09006KT 39/07 A2969 RMK A01 T03880066  RH  014%=      5-min Rain = 0
KCA2 272046Z 11008KT 39/07 A2968 RMK A01 T03880067  RH  014%=      5-min Rain = 0
KCA2 272047Z 12010G15KT 39/07 A2968 RMK A01 T03890068  RH  014%=      5-min Rain = 0
KCA2 272048Z 10011KT 39/07 A2968 RMK A01 T03910067  RH  014%=      5-min Rain = 0
KCA2 272049Z 07012KT 39/06 A2968 RMK A01 T03930061  RH  013%=      5-min Rain = 0
KCA2 272050Z 06012KT 39/06 A2968 RMK A01 T03940055  RH  013%=      5-min Rain = 0
KCA2 272051Z 07008KT 39/06 A2968 RMK A01 T03930055  RH  013%=      5-min Rain = 0
KCA2 272052Z 08008KT 39/05 A2968 RMK A01 T03940050  RH  012%=      5-min Rain = 0
KCA2 272053Z 08009KT 40/04 A2968 RMK A01 T03950042  RH  011%=      5-min Rain = 0
KCA2 272054Z 09008KT 40/04 A2968 RMK A01 T03970044  RH  012%=      5-min Rain = 0
KCA2 272055Z 12007KT 40/04 A2968 RMK A01 T03970044  RH  012%=      5-min Rain = 0
KCA2 272056Z 13007KT 40/05 A2968 RMK A01 T03980049  RH  012%=      5-min Rain = 0
KCA2 272057Z 15004KT 40/05 A2968 RMK A01 T03980049  RH  012%=      5-min Rain = 0
KCA2 272058Z 10005KT 40/05 A2968 RMK A01 T03980047  RH  012%=      5-min Rain = 0
KCA2 272059Z 35001KT 40/05 A2968 RMK A01 T03980046  RH  012%=      5-min Rain = 0
KCA2 272100Z 28002KT 40/04 A2967 RMK A01 T03980043  RH  011%=      5-min Rain = 0
KCA2 272101Z 27002KT 40/04 A2968 RMK A01 T03990043  RH  011%=      5-min Rain = 0
KCA2 272102Z 15003KT 40/04 A2968 RMK A01 T04030044  RH  011%=      5-min Rain = 0
KCA2 272103Z 15002G7KT 40/04 A2967 RMK A01 T04040041  RH  011%=      5-min Rain = 0
KCA2 272104Z 17006KT 40/04 A2967 RMK A01 T04040037  RH  011%=      5-min Rain = 0
KCA2 272105Z 14008KT 41/04 A2967 RMK A01 T04050037  RH  011%=      5-min Rain = 0
KCA2 272106Z 15008KT 41/03 A2967 RMK A01 T04060032  RH  010%=      5-min Rain = 0
KCA2 272107Z 13010KT 41/03 A2967 RMK A01 T04070028  RH  010%=      5-min Rain = 0
KCA2 272108Z 14006KT 41/03 A2967 RMK A01 T04060026  RH  010%=      5-min Rain = 0
KCA2 272109Z 16007KT 41/03 A2967 RMK A01 T04050032  RH  010%=      5-min Rain = 0
KCA2 272110Z 17010KT 41/02 A2967 RMK A01 T04070018  RH  009%=      5-min Rain = 0
KCA2 272111Z 18006KT 41/01 A2967 RMK A01 T04080008  RH  008%=      5-min Rain = 0
KCA2 272112Z 17004KT 41/01 A2967 RMK A01 T04070009  RH  008%=      5-min Rain = 0
KCA2 272113Z 16008KT 41/02 A2967 RMK A01 T04080017  RH  009%=      5-min Rain = 0
KCA2 272114Z 18008KT 41/00 A2967 RMK A01 T04090002  RH  008%=      5-min Rain = 0
KCA2 272115Z 19008KT 41/00 A2967 RMK A01 T04120001  RH  008%=      5-min Rain = 0
KCA2 272116Z 21011KT 42/00 A2967 RMK A01 T04150000  RH  008%=      5-min Rain = 0
KCA2 272117Z 23007KT 41/01 A2967 RMK A01 T04140009  RH  008%=      5-min Rain = 0
KCA2 272118Z 18004KT 41/00 A2967 RMK A01 T04130000  RH  008%=      5-min Rain = 0
KCA2 272119Z 16004KT 41/M01 A2967 RMK A01 T04121006  RH  007%=      5-min Rain = 0
KCA2 272120Z 18004KT 41/M01 A2966 RMK A01 T04091008  RH  007%=      5-min Rain = 0
KCA2 272121Z 20007KT 41/M01 A2967 RMK A01 T04071006  RH  008%=      5-min Rain = 0
KCA2 272122Z 20011KT 41/00 A2966 RMK A01 T04110001  RH  008%=      5-min Rain = 0
KCA2 272123Z 20013KT 42/M00 A2966 RMK A01 T04181001  RH  007%=      5-min Rain = 0
KCA2 272124Z 21012KT 42/M00 A2966 RMK A01 T04181003  RH  007%=      5-min Rain = 0
KCA2 272125Z 21012G17KT 42/M00 A2966 RMK A01 T04171002  RH  007%=      5-min Rain = 0
KCA2 272126Z 20006G11KT 42/M00 A2966 RMK A01 T04171003  RH  007%=      5-min Rain = 0
KCA2 272127Z 19010KT 42/M00 A2966 RMK A01 T04161003  RH  007%=      5-min Rain = 0
KCA2 272128Z 23010KT 42/M00 A2966 RMK A01 T04161001  RH  008%=      5-min Rain = 0
KCA2 272129Z 23012KT 42/M00 A2966 RMK A01 T04171001  RH  008%=      5-min Rain = 0
KCA2 272130Z 23014KT 42/M00 A2966 RMK A01 T04181001  RH  007%=      5-min Rain = 0
KCA2 272131Z 24011KT 42/M00 A2966 RMK A01 T04181003  RH  007%=      5-min Rain = 0
KCA2 272132Z 26008G15KT 41/M01 A2966 RMK A01 T04131006  RH  007%=      5-min Rain = 0
KCA2 272133Z 24012KT 41/M00 A2965 RMK A01 T04131003  RH  008%=      5-min Rain = 0
KCA2 272134Z 20010KT 42/M00 A2965 RMK A01 T04161002  RH  008%=      5-min Rain = 0
KCA2 272135Z 18007KT 42/M00 A2965 RMK A01 T04161003  RH  007%=      5-min Rain = 0
KCA2 272136Z 18008G13KT 42/M00 A2965 RMK A01 T04161001  RH  008%=      5-min Rain = 0
KCA2 272137Z 18011KT 42/M00 A2965 RMK A01 T04171001  RH  008%=      5-min Rain = 0
KCA2 272138Z 18012KT 42/M00 A2965 RMK A01 T04161001  RH  008%=      5-min Rain = 0
KCA2 272139Z 18011KT 42/M00 A2965 RMK A01 T04171001  RH  008%=      5-min Rain = 0
KCA2 272140Z 17006KT 42/M00 A2965 RMK A01 T04161003  RH  007%=      5-min Rain = 0
KCA2 272141Z 18008KT 42/M00 A2965 RMK A01 T04151002  RH  008%=      5-min Rain = 0
KCA2 272142Z 18012KT 42/M00 A2965 RMK A01 T04161002  RH  008%=      5-min Rain = 0
KCA2 272143Z 19013KT 42/M00 A2965 RMK A01 T04151001  RH  008%=      5-min Rain = 0
KCA2 272144Z 18010KT 42/M00 A2965 RMK A01 T04161001  RH  008%=      5-min Rain = 0
KCA2 272145Z 18011KT 42/00 A2965 RMK A01 T04190001  RH  008%=      5-min Rain = 0
KCA2 272146Z 18011KT 42/M00 A2965 RMK A01 T04191001  RH  007%=      5-min Rain = 0
KCA2 272147Z 20008KT 42/M00 A2965 RMK A01 T04171001  RH  008%=      5-min Rain = 0
KCA2 272148Z 24010G17KT 42/00 A2965 RMK A01 T04200001  RH  008%=      5-min Rain = 0
KCA2 272149Z 26015KT 42/00 A2964 RMK A01 T04230001  RH  007%=      5-min Rain = 0
KCA2 272150Z 28012KT 42/M00 A2964 RMK A01 T04201002  RH  007%=      5-min Rain = 0
KCA2 272151Z 26009KT 41/M01 A2964 RMK A01 T04141005  RH  007%=      5-min Rain = 0
KCA2 272152Z 22012G17KT 42/M00 A2965 RMK A01 T04151002  RH  008%=      5-min Rain = 0
KCA2 272153Z 21014KT 42/00 A2965 RMK A01 T04190000  RH  008%=      5-min Rain = 0
KCA2 272154Z 21012KT 42/00 A2965 RMK A01 T04230002  RH  007%=      5-min Rain = 0
KCA2 272155Z 21009KT 42/00 A2965 RMK A01 T04240001  RH  007%=      5-min Rain = 0
KCA2 272156Z 21009KT 42/M00 A2965 RMK A01 T04201001  RH  007%=      5-min Rain = 0
KCA2 272157Z 21007KT 42/M00 A2964 RMK A01 T04181001  RH  007%=      5-min Rain = 0
KCA2 272158Z 22005KT 42/00 A2964 RMK A01 T041800-0  RH  007%=      5-min Rain = 0
KCA2 272159Z 24004KT 42/M00 A2964 RMK A01 T04201004  RH  007%=      5-min Rain = 0
KCA2 272200Z 25007G12KT 42/M00 A2964 RMK A01 T04191003  RH  007%=      5-min Rain = 0
KCA2 272201Z 23010KT 42/M00 A2964 RMK A01 T04211002  RH  007%=      5-min Rain = 0
KCA2 272202Z 20013G18KT 42/M00 A2964 RMK A01 T04231001  RH  007%=      5-min Rain = 0
KCA2 272203Z 22011G16KT 42/M00 A2964 RMK A01 T04241001  RH  007%=      5-min Rain = 0
KCA2 272204Z 19012KT 43/00 A2964 RMK A01 T04260000  RH  007%=      5-min Rain = 0
KCA2 272205Z 19016KT 43/M00 A2964 RMK A01 T04271001  RH  007%=      5-min Rain = 0
KCA2 272206Z 21013G18KT 42/M00 A2964 RMK A01 T04241003  RH  007%=      5-min Rain = 0
KCA2 272207Z 23009KT 42/M00 A2964 RMK A01 T04201003  RH  007%=      5-min Rain = 0
KCA2 272208Z 24008KT 42/M00 A2964 RMK A01 T04201003  RH  007%=      5-min Rain = 0
KCA2 272209Z 23009KT 42/M00 A2964 RMK A01 T04221003  RH  007%=      5-min Rain = 0
KCA2 272210Z 22008KT 42/M01 A2964 RMK A01 T04211005  RH  007%=      5-min Rain = 0
KCA2 272211Z 21008KT 42/M00 A2964 RMK A01 T04181004  RH  007%=      5-min Rain = 0
KCA2 272212Z 15006KT 42/M00 A2964 RMK A01 T04191003  RH  007%=      5-min Rain = 0
KCA2 272213Z 14008KT 42/M00 A2964 RMK A01 T04191003  RH  007%=      5-min Rain = 0
KCA2 272214Z 17009G16KT 42/M00 A2963 RMK A01 T04181003  RH  007%=      5-min Rain = 0
KCA2 272215Z 22012KT 42/M00 A2963 RMK A01 T04201001  RH  007%=      5-min Rain = 0
KCA2 272216Z 21012KT 42/00 A2963 RMK A01 T04240000  RH  007%=      5-min Rain = 0
KCA2 272217Z 22011G16KT 43/M00 A2963 RMK A01 T04251001  RH  007%=      5-min Rain = 0
KCA2 272218Z 22007G13KT 43/M00 A2963 RMK A01 T04251001  RH  007%=      5-min Rain = 0
KCA2 272219Z 21006KT 43/M00 A2964 RMK A01 T04251001  RH  007%=      5-min Rain = 0
KCA2 272220Z 19005KT 43/00 A2964 RMK A01 T042700-0  RH  007%=      5-min Rain = 0
KCA2 272221Z 16005KT 43/M00 A2964 RMK A01 T04271003  RH  007%=      5-min Rain = 0
KCA2 272222Z 17006KT 42/M00 A2964 RMK A01 T04231004  RH  007%=      5-min Rain = 0
KCA2 272223Z 22006KT 42/M00 A2964 RMK A01 T04211003  RH  007%=      5-min Rain = 0
KCA2 272224Z 17006KT 42/M00 A2963 RMK A01 T04201003  RH  007%=      5-min Rain = 0
KCA2 272225Z 16006G11KT 42/M00 A2963 RMK A01 T04201001  RH  007%=      5-min Rain = 0
KCA2 272226Z 16013G20KT 42/00 A2963 RMK A01 T04220003  RH  007%=      5-min Rain = 0
KCA2 272227Z 17017KT 42/00 A2963 RMK A01 T04240001  RH  007%=      5-min Rain = 0
KCA2 272228Z 15014G20KT 42/M00 A2963 RMK A01 T04211001  RH  007%=      5-min Rain = 0
KCA2 272229Z 16013KT 42/M00 A2963 RMK A01 T04181002  RH  007%=      5-min Rain = 0
KCA2 272230Z 16012KT 42/00 A2963 RMK A01 T041700-0  RH  008%=      5-min Rain = 0
KCA2 272231Z 18010KT 42/00 A2963 RMK A01 T041600-0  RH  008%=      5-min Rain = 0
KCA2 272232Z 15008KT 42/00 A2963 RMK A01 T04160001  RH  008%=      5-min Rain = 0
KCA2 272233Z 16012KT 42/00 A2962 RMK A01 T04190004  RH  008%=      5-min Rain = 0
KCA2 272234Z 20013KT 42/00 A2962 RMK A01 T04210004  RH  008%=      5-min Rain = 0
KCA2 272235Z 18016G22KT 42/00 A2962 RMK A01 T04220002  RH  008%=      5-min Rain = 0
KCA2 272236Z 18017KT 42/00 A2962 RMK A01 T04180003  RH  008%=      5-min Rain = 0
KCA2 272237Z 17010G15KT 42/00 A2962 RMK A01 T04160002  RH  008%=      5-min Rain = 0
KCA2 272238Z 19013KT 42/00 A2963 RMK A01 T04160003  RH  008%=      5-min Rain = 0
KCA2 272239Z 21012KT 42/00 A2963 RMK A01 T04190004  RH  008%=      5-min Rain = 0
KCA2 272240Z 21011KT 42/00 A2963 RMK A01 T04200004  RH  008%=      5-min Rain = 0
KCA2 272241Z 20011KT 42/01 A2963 RMK A01 T04210005  RH  008%=      5-min Rain = 0
KCA2 272242Z 22011KT 42/01 A2963 RMK A01 T04210005  RH  008%=      5-min Rain = 0
KCA2 272243Z 25011KT 42/01 A2962 RMK A01 T04210005  RH  008%=      5-min Rain = 0
KCA2 272244Z 24007G12KT 42/00 A2963 RMK A01 T04180003  RH  008%=      5-min Rain = 0
KCA2 272245Z 20011KT 42/00 A2963 RMK A01 T04150004  RH  008%=      5-min Rain = 0
KCA2 272246Z 17009KT 42/01 A2962 RMK A01 T04150005  RH  008%=      5-min Rain = 0
KCA2 272247Z 19009KT 42/01 A2962 RMK A01 T04150005  RH  008%=      5-min Rain = 0
KCA2 272248Z 23011KT 42/01 A2962 RMK A01 T04150006  RH  008%=      5-min Rain = 0
KCA2 272249Z 23007G13KT 42/01 A2962 RMK A01 T04170008  RH  008%=      5-min Rain = 0
KCA2 272250Z 21007KT 42/01 A2962 RMK A01 T04190009  RH  008%=      5-min Rain = 0
KCA2 272251Z 20009KT 42/01 A2962 RMK A01 T04220011  RH  008%=      5-min Rain = 0
KCA2 272252Z 21012KT 42/01 A2962 RMK A01 T04220010  RH  008%=      5-min Rain = 0
KCA2 272253Z 22010KT 42/01 A2962 RMK A01 T04210010  RH  008%=      5-min Rain = 0
KCA2 272254Z 22007KT 42/01 A2962 RMK A01 T04190009  RH  008%=      5-min Rain = 0
KCA2 272255Z 22006KT 42/01 A2962 RMK A01 T04210011  RH  008%=      5-min Rain = 0
KCA2 272256Z 21009KT 43/01 A2962 RMK A01 T04250012  RH  008%=      5-min Rain = 0
KCA2 272257Z 20008KT 43/01 A2962 RMK A01 T04260013  RH  008%=      5-min Rain = 0
KCA2 272258Z 20011KT 43/01 A2962 RMK A01 T04250012  RH  008%=      5-min Rain = 0
KCA2 272259Z 20006KT 43/01 A2962 RMK A01 T04250012  RH  008%=      5-min Rain = 0
KCA2 272300Z 18005KT 42/01 A2962 RMK A01 T04240012  RH  008%=      5-min Rain = 0
KCA2 272301Z 18008KT 42/01 A2962 RMK A01 T04220011  RH  008%=      5-min Rain = 0
KCA2 272302Z 18011KT 42/01 A2961 RMK A01 T04200013  RH  008%=      5-min Rain = 0
KCA2 272303Z 16011KT 42/01 A2961 RMK A01 T04190013  RH  008%=      5-min Rain = 0
KCA2 272304Z 17017G23KT 42/01 A2961 RMK A01 T04190013  RH  008%=      5-min Rain = 0
KCA2 272305Z 17014G21KT 42/01 A2961 RMK A01 T04180013  RH  008%=      5-min Rain = 0
KCA2 272306Z 17009G14KT 41/01 A2961 RMK A01 T04140010  RH  008%=      5-min Rain = 0
KCA2 272307Z 21012KT 42/01 A2961 RMK A01 T04150014  RH  008%=      5-min Rain = 0
KCA2 272308Z 22012KT 42/02 A2961 RMK A01 T04210016  RH  008%=      5-min Rain = 0
KCA2 272309Z 21010KT 42/02 A2961 RMK A01 T04230015  RH  008%=      5-min Rain = 0
KCA2 272310Z 20011KT 42/02 A2961 RMK A01 T04230015  RH  008%=      5-min Rain = 0
KCA2 272311Z 18012KT 42/01 A2961 RMK A01 T04220014  RH  008%=      5-min Rain = 0
KCA2 272312Z 17013KT 42/01 A2961 RMK A01 T04190013  RH  008%=      5-min Rain = 0
KCA2 272313Z 17009KT 42/01 A2961 RMK A01 T04170013  RH  008%=      5-min Rain = 0
KCA2 272314Z 16007KT 42/01 A2961 RMK A01 T04190014  RH  008%=      5-min Rain = 0
KCA2 272315Z 16007KT 42/01 A2961 RMK A01 T04190014  RH  008%=      5-min Rain = 0
KCA2 272316Z 18007KT 42/02 A2961 RMK A01 T04200015  RH  008%=      5-min Rain = 0
KCA2 272317Z 18015KT 42/02 A2961 RMK A01 T04210015  RH  008%=      5-min Rain = 0
KCA2 272318Z 16010G17KT 42/01 A2961 RMK A01 T04190012  RH  008%=      5-min Rain = 0
KCA2 272319Z 16009G14KT 42/01 A2961 RMK A01 T04170011  RH  008%=      5-min Rain = 0
KCA2 272320Z 18009KT 42/01 A2961 RMK A01 T04160012  RH  008%=      5-min Rain = 0
KCA2 272321Z 19009KT 42/01 A2961 RMK A01 T04170013  RH  008%=      5-min Rain = 0
KCA2 272322Z 20008KT 42/01 A2961 RMK A01 T04190013  RH  008%=      5-min Rain = 0
KCA2 272323Z 20009KT 42/01 A2961 RMK A01 T04230014  RH  008%=      5-min Rain = 0
KCA2 272324Z 20009KT 42/01 A2961 RMK A01 T04240013  RH  008%=      5-min Rain = 0
KCA2 272325Z 23011KT 42/01 A2961 RMK A01 T04220012  RH  008%=      5-min Rain = 0
KCA2 272326Z 20007KT 42/01 A2961 RMK A01 T04220009  RH  008%=      5-min Rain = 0
KCA2 272327Z 19013G18KT 42/00 A2961 RMK A01 T04230004  RH  008%=      5-min Rain = 0
KCA2 272328Z 19007KT 42/M01 A296 RMK A01 T04231011  RH  007%=      5-min Rain = 0
KCA2 272329Z 19010G17KT 42/M01 A296 RMK A01 T04211011  RH  007%=      5-min Rain = 0
KCA2 272330Z 20013KT 42/M01 A296 RMK A01 T04201010  RH  007%=      5-min Rain = 0
KCA2 272331Z 20012KT 42/M01 A296 RMK A01 T04201009  RH  007%=      5-min Rain = 0
KCA2 272332Z 22009KT 42/M01 A296 RMK A01 T04211009  RH  007%=      5-min Rain = 0
KCA2 272333Z 22007KT 42/M01 A296 RMK A01 T04221009  RH  007%=      5-min Rain = 0
KCA2 272334Z 24012G17KT 42/M01 A296 RMK A01 T04241008  RH  007%=      5-min Rain = 0
KCA2 272335Z 23014G22KT 43/M01 A296 RMK A01 T04251010  RH  007%=      5-min Rain = 0
KCA2 272336Z 22010G15KT 42/M01 A296 RMK A01 T04241010  RH  007%=      5-min Rain = 0
KCA2 272337Z 20012KT 42/M01 A296 RMK A01 T04241014  RH  007%=      5-min Rain = 0
KCA2 272338Z 20012G17KT 42/M02 A296 RMK A01 T04201017  RH  007%=      5-min Rain = 0
KCA2 272339Z 19013KT 42/M02 A296 RMK A01 T04171016  RH  007%=      5-min Rain = 0
KCA2 272340Z 19014G20KT 42/M01 A296 RMK A01 T04171014  RH  007%=      5-min Rain = 0
KCA2 272341Z 19008KT 42/M01 A296 RMK A01 T04181013  RH  007%=      5-min Rain = 0
KCA2 272342Z 19012KT 42/M01 A296 RMK A01 T04201013  RH  007%=      5-min Rain = 0
KCA2 272343Z 21009KT 42/M01 A296 RMK A01 T04221011  RH  007%=      5-min Rain = 0
KCA2 272344Z 22008KT 42/M01 A296 RMK A01 T04231011  RH  007%=      5-min Rain = 0
KCA2 272345Z 25011KT 42/M01 A296 RMK A01 T04221011  RH  007%=      5-min Rain = 0
KCA2 272346Z 25009KT 42/M01 A296 RMK A01 T04221011  RH  007%=      5-min Rain = 0
KCA2 272347Z 26007KT 42/M01 A296 RMK A01 T04241011  RH  007%=      5-min Rain = 0
KCA2 272348Z 27005KT 42/M01 A296 RMK A01 T04241012  RH  007%=      5-min Rain = 0
KCA2 272349Z 28010G16KT 42/M01 A296 RMK A01 T04231012  RH  007%=      5-min Rain = 0
KCA2 272350Z 25015G20KT 42/M01 A2959 RMK A01 T04221013  RH  007%=      5-min Rain = 0
KCA2 272351Z 29015G20KT 42/M01 A2959 RMK A01 T04221014  RH  007%=      5-min Rain = 0
KCA2 272352Z 28017G22KT 42/M02 A2959 RMK A01 T04211016  RH  007%=      5-min Rain = 0
KCA2 272353Z 27017KT 42/M02 A2959 RMK A01 T04201019  RH  006%=      5-min Rain = 0
KCA2 272354Z 26016KT 42/M02 A2959 RMK A01 T04191020  RH  006%=      5-min Rain = 0
KCA2 272355Z 27021G27KT 42/M02 A2958 RMK A01 T04181020  RH  007%=      5-min Rain = 0
KCA2 272356Z 27022G28KT 42/M02 A2958 RMK A01 T04181018  RH  007%=      5-min Rain = 0
KCA2 272357Z 26023KT 42/M02 A2959 RMK A01 T04191017  RH  007%=      5-min Rain = 0
KCA2 272358Z 23015G24KT 42/M02 A296 RMK A01 T04201017  RH  007%=      5-min Rain = 0
KCA2 272359Z 21018KT 42/M02 A296 RMK A01 T04191021  RH  006%=      5-min Rain = 0
KCA2 280000Z 20013KT 42/M02 A296 RMK A01 T04161024  RH  006%=      5-min Rain = 0
KCA2 280001Z 19015G20KT 41/M02 A2959 RMK A01 T04141022  RH  007%=      5-min Rain = 0
KCA2 280002Z 20012G17KT 41/M02 A296 RMK A01 T04141020  RH  007%=      5-min Rain = 0
KCA2 280003Z 23006KT 42/M02 A296 RMK A01 T04161019  RH  007%=      5-min Rain = 0
KCA2 280004Z 21007KT 42/M02 A296 RMK A01 T04191017  RH  007%=      5-min Rain = 0
KCA2 280005Z 24010KT 42/M02 A296 RMK A01 T04191017  RH  007%=      5-min Rain = 0
KCA2 280006Z 24014KT 42/M01 A296 RMK A01 T04191013  RH  007%=      5-min Rain = 0
KCA2 280007Z 24017G26KT 42/M01 A296 RMK A01 T04181010  RH  007%=      5-min Rain = 0
KCA2 280008Z 24017KT 42/M01 A2959 RMK A01 T04161011  RH  007%=      5-min Rain = 0
KCA2 280009Z 26020G27KT 42/M01 A2959 RMK A01 T04151010  RH  007%=      5-min Rain = 0
KCA2 280010Z 25019KT 42/M01 A2959 RMK A01 T04151011  RH  007%=      5-min Rain = 0
KCA2 280011Z 23014G20KT 42/M01 A2959 RMK A01 T04151012  RH  007%=      5-min Rain = 0
KCA2 280012Z 26014KT 42/M01 A2959 RMK A01 T04151011  RH  007%=      5-min Rain = 0
KCA2 280013Z 25014G19KT 42/M01 A2959 RMK A01 T04151011  RH  007%=      5-min Rain = 0
KCA2 280014Z 25013KT 42/M01 A2959 RMK A01 T04151010  RH  007%=      5-min Rain = 0
KCA2 280015Z 25013G18KT 42/M01 A2959 RMK A01 T04181009  RH  007%=      5-min Rain = 0
KCA2 280016Z 25011KT 42/M01 A2959 RMK A01 T04181010  RH  007%=      5-min Rain = 0
KCA2 280017Z 25010KT 42/M01 A2959 RMK A01 T04181012  RH  007%=      5-min Rain = 0
KCA2 280018Z 23009KT 42/M02 A296 RMK A01 T04181015  RH  007%=      5-min Rain = 0
KCA2 280019Z 25008KT 42/M02 A296 RMK A01 T04171015  RH  007%=      5-min Rain = 0
KCA2 280020Z 24011KT 42/M02 A296 RMK A01 T04161015  RH  007%=      5-min Rain = 0
KCA2 280021Z 24010KT 42/M02 A296 RMK A01 T04161015  RH  007%=      5-min Rain = 0
KCA2 280022Z 24010KT 42/M01 A296 RMK A01 T04171014  RH  007%=      5-min Rain = 0
KCA2 280023Z 26015G21KT 42/M02 A2959 RMK A01 T04181019  RH  007%=      5-min Rain = 0
KCA2 280024Z 26019KT 42/M02 A2959 RMK A01 T04161021  RH  007%=      5-min Rain = 0
KCA2 280025Z 24012G18KT 42/M02 A2959 RMK A01 T04151023  RH  006%=      5-min Rain = 0
KCA2 280026Z 23014KT 41/M02 A2959 RMK A01 T04141023  RH  007%=      5-min Rain = 0
KCA2 280027Z 21014KT 42/M02 A2959 RMK A01 T04151021  RH  007%=      5-min Rain = 0
KCA2 280028Z 20013KT 42/M02 A2959 RMK A01 T04151022  RH  007%=      5-min Rain = 0
KCA2 280029Z 23008KT 42/M02 A2959 RMK A01 T04151021  RH  007%=      5-min Rain = 0
KCA2 280030Z 25006KT 42/M02 A2959 RMK A01 T04151019  RH  007%=      5-min Rain = 0
KCA2 280031Z 26006KT 42/M02 A2959 RMK A01 T04161019  RH  007%=      5-min Rain = 0
KCA2 280032Z 24008KT 42/M02 A2959 RMK A01 T04171019  RH  007%=      5-min Rain = 0
KCA2 280033Z 24014KT 42/M02 A2959 RMK A01 T04161018  RH  007%=      5-min Rain = 0
KCA2 280034Z 23014KT 42/M02 A296 RMK A01 T04151017  RH  007%=      5-min Rain = 0
KCA2 280035Z 23016KT 41/M02 A296 RMK A01 T04141019  RH  007%=      5-min Rain = 0
KCA2 280036Z 22016G24KT 41/M02 A2959 RMK A01 T04131020  RH  007%=      5-min Rain = 0
KCA2 280037Z 20014G23KT 41/M02 A2959 RMK A01 T04121021  RH  007%=      5-min Rain = 0
KCA2 280038Z 23011G16KT 41/M02 A2959 RMK A01 T04121020  RH  007%=      5-min Rain = 0
KCA2 280039Z 24011KT 41/M02 A2959 RMK A01 T04111020  RH  007%=      5-min Rain = 0
KCA2 280040Z 25019G25KT 41/M02 A2959 RMK A01 T04121018  RH  007%=      5-min Rain = 0
KCA2 280041Z 22012KT 41/M02 A2959 RMK A01 T04111015  RH  007%=      5-min Rain = 0
KCA2 280042Z 21007G12KT 41/M02 A2959 RMK A01 T04101015  RH  007%=      5-min Rain = 0
KCA2 280043Z 23006KT 41/M02 A2959 RMK A01 T04091015  RH  007%=      5-min Rain = 0
KCA2 280044Z 23006KT 41/M02 A2959 RMK A01 T04091015  RH  007%=      5-min Rain = 0
KCA2 280045Z 22008KT 41/M02 A2959 RMK A01 T04101015  RH  007%=      5-min Rain = 0
KCA2 280046Z 24008G13KT 41/M01 A2959 RMK A01 T04101014  RH  007%=      5-min Rain = 0
KCA2 280047Z 24008KT 41/M01 A2959 RMK A01 T04111013  RH  007%=      5-min Rain = 0
KCA2 280048Z 26011KT 41/M01 A2959 RMK A01 T04111012  RH  007%=      5-min Rain = 0
KCA2 280049Z 25009KT 41/M01 A2959 RMK A01 T04101011  RH  007%=      5-min Rain = 0
KCA2 280050Z 26013G18KT 41/M01 A2959 RMK A01 T04101010  RH  007%=      5-min Rain = 0
KCA2 280051Z 27015KT 41/M01 A2959 RMK A01 T04101009  RH  007%=      5-min Rain = 0
KCA2 280052Z 27012KT 41/M01 A2959 RMK A01 T04091010  RH  007%=      5-min Rain = 0
KCA2 280053Z 24008KT 41/M01 A2959 RMK A01 T04091010  RH  007%=      5-min Rain = 0
KCA2 280054Z 26009KT 41/M01 A2959 RMK A01 T04091009  RH  007%=      5-min Rain = 0
KCA2 280055Z 26006KT 41/M01 A2959 RMK A01 T04091010  RH  007%=      5-min Rain = 0
KCA2 280056Z 25011KT 41/M01 A2959 RMK A01 T04091009  RH  007%=      5-min Rain = 0
KCA2 280057Z 22009KT 41/M01 A2959 RMK A01 T04091009  RH  007%=      5-min Rain = 0
KCA2 280058Z 28006KT 41/M01 A2959 RMK A01 T04091010  RH  007%=      5-min Rain = 0
KCA2 280059Z 19006KT 41/M01 A2959 RMK A01 T04081010  RH  007%=      5-min Rain = 0
KCA2 280100Z 19007KT 41/M01 A2959 RMK A01 T04081009  RH  007%=      5-min Rain = 0
KCA2 280101Z 22008KT 41/M01 A2959 RMK A01 T04071008  RH  008%=      5-min Rain = 0
KCA2 280102Z 21009KT 41/M01 A2959 RMK A01 T04071008  RH  008%=      5-min Rain = 0
KCA2 280103Z 22009KT 41/M01 A2959 RMK A01 T04071006  RH  008%=      5-min Rain = 0
KCA2 280104Z 23009KT 41/M01 A2959 RMK A01 T04071006  RH  008%=      5-min Rain = 0
KCA2 280105Z 19007KT 41/M01 A2959 RMK A01 T04071009  RH  007%=      5-min Rain = 0
KCA2 280106Z 16009KT 41/M01 A2959 RMK A01 T04071009  RH  007%=      5-min Rain = 0
KCA2 280107Z 17012KT 41/M01 A2959 RMK A01 T04071009  RH  007%=      5-min Rain = 0
KCA2 280108Z 17011KT 41/M01 A2959 RMK A01 T04061010  RH  007%=      5-min Rain = 0
KCA2 280109Z 19009KT 41/M01 A2959 RMK A01 T04051010  RH  007%=      5-min Rain = 0
KCA2 280110Z 20014KT 41/M01 A2959 RMK A01 T04051011  RH  007%=      5-min Rain = 0
KCA2 280111Z 21015KT 41/M01 A2959 RMK A01 T04051012  RH  007%=      5-min Rain = 0
KCA2 280112Z 22013KT 41/M01 A2959 RMK A01 T04051014  RH  007%=      5-min Rain = 0
KCA2 280113Z 23014KT 41/M02 A2959 RMK A01 T04051015  RH  007%=      5-min Rain = 0
KCA2 280114Z 22010KT 41/M01 A2959 RMK A01 T04051014  RH  007%=      5-min Rain = 0
KCA2 280115Z 22011KT 41/M01 A2959 RMK A01 T04061014  RH  007%=      5-min Rain = 0
KCA2 280116Z 21009KT 41/M01 A2959 RMK A01 T04061014  RH  007%=      5-min Rain = 0
KCA2 280117Z 20006KT 41/M01 A2959 RMK A01 T04051014  RH  007%=      5-min Rain = 0
KCA2 280118Z 21004KT 41/M02 A2959 RMK A01 T04051017  RH  007%=      5-min Rain = 0
KCA2 280119Z 23005KT 40/M02 A2959 RMK A01 T04041017  RH  007%=      5-min Rain = 0
KCA2 280120Z 22010KT 40/M01 A296 RMK A01 T04031014  RH  007%=      5-min Rain = 0
KCA2 280121Z 20009G14KT 40/M01 A2959 RMK A01 T04031012  RH  007%=      5-min Rain = 0
KCA2 280122Z 19014KT 40/M01 A2959 RMK A01 T04031011  RH  007%=      5-min Rain = 0
KCA2 280123Z 21009KT 40/M01 A2959 RMK A01 T04031011  RH  008%=      5-min Rain = 0
KCA2 280124Z 19009KT 40/M01 A2959 RMK A01 T04041010  RH  008%=      5-min Rain = 0
KCA2 280125Z 22007KT 40/M01 A296 RMK A01 T04031009  RH  008%=      5-min Rain = 0
KCA2 280126Z 22010KT 40/M01 A296 RMK A01 T04011008  RH  008%=      5-min Rain = 0
KCA2 280127Z 22009KT 40/M01 A296 RMK A01 T04001009  RH  008%=      5-min Rain = 0
KCA2 280128Z 22008KT 40/M01 A296 RMK A01 T03991008  RH  008%=      5-min Rain = 0
KCA2 280129Z 22011KT 40/M01 A296 RMK A01 T03991008  RH  008%=      5-min Rain = 0
KCA2 280130Z 22009KT 40/M01 A296 RMK A01 T03991008  RH  008%=      5-min Rain = 0
KCA2 280131Z 21007KT 40/M01 A296 RMK A01 T03991009  RH  008%=      5-min Rain = 0
KCA2 280132Z 20008KT 40/M01 A296 RMK A01 T03991008  RH  008%=      5-min Rain = 0
KCA2 280133Z 20007KT 40/M01 A296 RMK A01 T03981008  RH  008%=      5-min Rain = 0
KCA2 280134Z 23007KT 40/M01 A296 RMK A01 T03971009  RH  008%=      5-min Rain = 0
KCA2 280135Z 23007KT 40/M01 A296 RMK A01 T03961009  RH  008%=      5-min Rain = 0
KCA2 280136Z 22011KT 40/M01 A296 RMK A01 T03961009  RH  008%=      5-min Rain = 0
KCA2 280137Z 22010KT 40/M01 A296 RMK A01 T03951009  RH  008%=      5-min Rain = 0
KCA2 280138Z 21010KT 40/M01 A296 RMK A01 T03961011  RH  008%=      5-min Rain = 0
KCA2 280139Z 22008KT 40/M01 A296 RMK A01 T03971011  RH  008%=      5-min Rain = 0
KCA2 280140Z 22010KT 40/M01 A296 RMK A01 T03971010  RH  008%=      5-min Rain = 0
KCA2 280141Z 21010KT 40/M01 A296 RMK A01 T03961009  RH  008%=      5-min Rain = 0
KCA2 280142Z 21010KT 40/M01 A296 RMK A01 T03961009  RH  008%=      5-min Rain = 0
KCA2 280143Z 20010KT 40/M01 A296 RMK A01 T03961008  RH  008%=      5-min Rain = 0
KCA2 280144Z 20010KT 40/M01 A296 RMK A01 T03961007  RH  008%=      5-min Rain = 0
KCA2 280145Z 22010KT 40/M01 A296 RMK A01 T03961008  RH  008%=      5-min Rain = 0
KCA2 280146Z 23012KT 40/M01 A296 RMK A01 T03961007  RH  008%=      5-min Rain = 0
KCA2 280147Z 23007KT 40/M01 A296 RMK A01 T03961008  RH  008%=      5-min Rain = 0
KCA2 280148Z 21007KT 40/M01 A296 RMK A01 T03961008  RH  008%=      5-min Rain = 0
KCA2 280149Z 22006KT 40/M01 A296 RMK A01 T03961008  RH  008%=      5-min Rain = 0
KCA2 280150Z 21008KT 40/M01 A296 RMK A01 T03961007  RH  008%=      5-min Rain = 0
KCA2 280151Z 21007KT 40/M01 A296 RMK A01 T03951008  RH  008%=      5-min Rain = 0
KCA2 280152Z 20007KT 40/M01 A296 RMK A01 T03951007  RH  008%=      5-min Rain = 0
KCA2 280153Z 20007KT 39/M01 A296 RMK A01 T03941007  RH  008%=      5-min Rain = 0
KCA2 280154Z 21007KT 39/M01 A296 RMK A01 T03921007  RH  008%=      5-min Rain = 0
KCA2 280155Z 20006KT 39/M01 A296 RMK A01 T03911007  RH  008%=      5-min Rain = 0
KCA2 280156Z 21008KT 39/M01 A296 RMK A01 T03901007  RH  008%=      5-min Rain = 0
KCA2 280157Z 21011KT 39/M01 A296 RMK A01 T03901006  RH  008%=      5-min Rain = 0
KCA2 280158Z 20011KT 39/M01 A296 RMK A01 T03921005  RH  008%=      5-min Rain = 0
KCA2 280159Z 20010KT 39/M01 A296 RMK A01 T03931005  RH  008%=      5-min Rain = 0
KCA2 280200Z 20009KT 39/M01 A296 RMK A01 T03931005  RH  008%=      5-min Rain = 0
KCA2 280201Z 21009KT 39/M01 A296 RMK A01 T03931005  RH  008%=      5-min Rain = 0
KCA2 280202Z 20009KT 39/M01 A296 RMK A01 T03921005  RH  008%=      5-min Rain = 0
KCA2 280203Z 20010KT 39/M00 A296 RMK A01 T03921004  RH  008%=      5-min Rain = 0
KCA2 280204Z 21011KT 39/M01 A296 RMK A01 T03921005  RH  008%=      5-min Rain = 0
KCA2 280205Z 21010KT 39/M00 A296 RMK A01 T03931004  RH  008%=      5-min Rain = 0
KCA2 280206Z 22010KT 39/M00 A296 RMK A01 T03941004  RH  008%=      5-min Rain = 0
KCA2 280207Z 21010KT 39/M00 A296 RMK A01 T03941004  RH  008%=      5-min Rain = 0
KCA2 280208Z 19007KT 39/M00 A296 RMK A01 T03941004  RH  008%=      5-min Rain = 0
KCA2 280209Z 20008KT 39/M01 A296 RMK A01 T03921005  RH  008%=      5-min Rain = 0
KCA2 280210Z 22009KT 39/M00 A296 RMK A01 T03911004  RH  008%=      5-min Rain = 0
KCA2 280211Z 21008KT 39/M00 A296 RMK A01 T03911004  RH  008%=      5-min Rain = 0
KCA2 280212Z 21010KT 39/M00 A296 RMK A01 T03911004  RH  008%=      5-min Rain = 0
KCA2 280213Z 20007KT 39/M00 A296 RMK A01 T03911003  RH  008%=      5-min Rain = 0
KCA2 280214Z 21007KT 39/M00 A296 RMK A01 T03901003  RH  009%=      5-min Rain = 0
KCA2 280215Z 20008KT 39/M00 A296 RMK A01 T03891004  RH  009%=      5-min Rain = 0
KCA2 280216Z 20008KT 39/M00 A296 RMK A01 T03901004  RH  008%=      5-min Rain = 0
KCA2 280217Z 20008KT 39/M00 A296 RMK A01 T03911003  RH  009%=      5-min Rain = 0
KCA2 280218Z 20008KT 39/M00 A296 RMK A01 T03901003  RH  009%=      5-min Rain = 0
KCA2 280219Z 19008KT 39/M00 A296 RMK A01 T03901004  RH  009%=      5-min Rain = 0
KCA2 280220Z 19007KT 39/M00 A296 RMK A01 T03901003  RH  009%=      5-min Rain = 0
KCA2 280221Z 19006KT 39/M00 A296 RMK A01 T03891004  RH  009%=      5-min Rain = 0
KCA2 280222Z 19005KT 39/M00 A296 RMK A01 T03871004  RH  009%=      5-min Rain = 0
KCA2 280223Z 20005KT 39/M00 A296 RMK A01 T03851003  RH  009%=      5-min Rain = 0
KCA2 280224Z 20005KT 39/M00 A296 RMK A01 T03851004  RH  009%=      5-min Rain = 0
KCA2 280225Z 19005KT 38/M00 A296 RMK A01 T03841003  RH  009%=      5-min Rain = 0
KCA2 280226Z 20006KT 38/M00 A296 RMK A01 T03831003  RH  009%=      5-min Rain = 0
KCA2 280227Z 19005KT 38/M00 A296 RMK A01 T03821003  RH  009%=      5-min Rain = 0
KCA2 280228Z 19004KT 38/M00 A296 RMK A01 T03821004  RH  009%=      5-min Rain = 0
KCA2 280229Z 18005KT 38/M00 A296 RMK A01 T03821003  RH  009%=      5-min Rain = 0
KCA2 280230Z 18005KT 38/M00 A296 RMK A01 T03801003  RH  009%=      5-min Rain = 0
KCA2 280231Z 19004KT 38/M00 A296 RMK A01 T03781003  RH  009%=      5-min Rain = 0
KCA2 280232Z 18005KT 38/M00 A296 RMK A01 T03771003  RH  009%=      5-min Rain = 0
KCA2 280233Z 19006KT 38/M00 A296 RMK A01 T03771003  RH  009%=      5-min Rain = 0
KCA2 280234Z 18005KT 38/M00 A296 RMK A01 T03781003  RH  009%=      5-min Rain = 0
KCA2 280235Z 18006KT 38/M00 A296 RMK A01 T03781003  RH  009%=      5-min Rain = 0
KCA2 280236Z 18005KT 38/M00 A296 RMK A01 T03781003  RH  009%=      5-min Rain = 0
KCA2 280237Z 18005KT 38/M00 A296 RMK A01 T03781003  RH  009%=      5-min Rain = 0
KCA2 280238Z 18005KT 38/M00 A296 RMK A01 T03781004  RH  009%=      5-min Rain = 0
KCA2 280239Z 19004KT 38/M00 A296 RMK A01 T03781004  RH  009%=      5-min Rain = 0
KCA2 280240Z 19005KT 38/M00 A296 RMK A01 T03791003  RH  009%=      5-min Rain = 0
KCA2 280241Z 20005KT 38/M00 A296 RMK A01 T03811004  RH  009%=      5-min Rain = 0
KCA2 280242Z 20006KT 38/M00 A296 RMK A01 T03811004  RH  009%=      5-min Rain = 0
KCA2 280243Z 19005KT 38/M00 A296 RMK A01 T03801004  RH  009%=      5-min Rain = 0
KCA2 280244Z 20005KT 38/M00 A296 RMK A01 T03791004  RH  009%=      5-min Rain = 0
KCA2 280245Z 20004KT 38/M00 A296 RMK A01 T03781004  RH  009%=      5-min Rain = 0
KCA2 280246Z 17003KT 38/M00 A296 RMK A01 T03771004  RH  009%=      5-min Rain = 0
KCA2 280247Z 18004KT 37/M00 A296 RMK A01 T03741002  RH  009%=      5-min Rain = 0
KCA2 280248Z 19005KT 37/M00 A296 RMK A01 T03721002  RH  009%=      5-min Rain = 0
KCA2 280249Z 19005KT 37/M00 A296 RMK A01 T03721003  RH  009%=      5-min Rain = 0
KCA2 280250Z 18006KT 37/M00 A296 RMK A01 T03731004  RH  009%=      5-min Rain = 0
KCA2 280251Z 18006KT 37/M00 A296 RMK A01 T03731003  RH  009%=      5-min Rain = 0
KCA2 280252Z 19006KT 37/M00 A296 RMK A01 T03721004  RH  009%=      5-min Rain = 0
KCA2 280253Z 19007KT 37/M00 A296 RMK A01 T03721003  RH  009%=      5-min Rain = 0
KCA2 280254Z 19007KT 37/M00 A296 RMK A01 T03711003  RH  009%=      5-min Rain = 0
KCA2 280255Z 19006KT 37/M00 A296 RMK A01 T03721004  RH  009%=      5-min Rain = 0
KCA2 280256Z 19007KT 37/M00 A296 RMK A01 T03731004  RH  009%=      5-min Rain = 0
KCA2 280257Z 19006KT 38/M00 A296 RMK A01 T03751004  RH  009%=      5-min Rain = 0
KCA2 280258Z 19006KT 38/M00 A296 RMK A01 T03761003  RH  009%=      5-min Rain = 0
KCA2 280259Z 19006KT 38/M00 A296 RMK A01 T03751003  RH  009%=      5-min Rain = 0
KCA2 280300Z 19005KT 37/M00 A296 RMK A01 T03721003  RH  009%=      5-min Rain = 0
KCA2 280301Z 19006KT 37/M00 A296 RMK A01 T03701002  RH  010%=      5-min Rain = 0
KCA2 280302Z 20007KT 37/M00 A296 RMK A01 T03681003  RH  010%=      5-min Rain = 0
KCA2 280303Z 21006KT 37/M00 A296 RMK A01 T03701004  RH  009%=      5-min Rain = 0
KCA2 280304Z 20004KT 37/M00 A296 RMK A01 T03731003  RH  009%=      5-min Rain = 0
KCA2 280305Z 21005KT 37/M00 A296 RMK A01 T03721003  RH  009%=      5-min Rain = 0
KCA2 280306Z 20005KT 37/M00 A296 RMK A01 T03701003  RH  010%=      5-min Rain = 0
KCA2 280307Z 20006KT 37/M00 A296 RMK A01 T03681003  RH  010%=      5-min Rain = 0
KCA2 280308Z 20006KT 37/M00 A296 RMK A01 T03671003  RH  010%=      5-min Rain = 0
KCA2 280309Z 20006KT 37/M00 A296 RMK A01 T03671004  RH  010%=      5-min Rain = 0
KCA2 280310Z 20005KT 37/M00 A2961 RMK A01 T03671004  RH  010%=      5-min Rain = 0
KCA2 280311Z 19006KT 37/M00 A2961 RMK A01 T03661004  RH  010%=      5-min Rain = 0
KCA2 280312Z 19006KT 37/M00 A2961 RMK A01 T03661004  RH  010%=      5-min Rain = 0
KCA2 280313Z 19007KT 37/M00 A2961 RMK A01 T03651004  RH  010%=      5-min Rain = 0
KCA2 280314Z 19007KT 37/M00 A2961 RMK A01 T03651004  RH  010%=      5-min Rain = 0
KCA2 280315Z 19007KT 37/M00 A2961 RMK A01 T03651004  RH  010%=      5-min Rain = 0
KCA2 280316Z 18007KT 37/M00 A2961 RMK A01 T03661003  RH  010%=      5-min Rain = 0
KCA2 280317Z 17006KT 36/M00 A2961 RMK A01 T03641001  RH  010%=      5-min Rain = 0
KCA2 280318Z 17007KT 36/00 A2961 RMK A01 T03590000  RH  010%=      5-min Rain = 0
KCA2 280319Z 17007KT 36/00 A2961 RMK A01 T03560000  RH  011%=      5-min Rain = 0
KCA2 280320Z 16008KT 35/00 A2961 RMK A01 T03540000  RH  011%=      5-min Rain = 0
KCA2 280321Z 15007KT 35/00 A2961 RMK A01 T03520000  RH  011%=      5-min Rain = 0
KCA2 280322Z 15008KT 35/00 A2961 RMK A01 T03510000  RH  011%=      5-min Rain = 0
KCA2 280323Z 14008KT 35/M00 A2961 RMK A01 T03501001  RH  011%=      5-min Rain = 0
KCA2 280324Z 13008KT 35/00 A2962 RMK A01 T035200-0  RH  011%=      5-min Rain = 0
KCA2 280325Z 13009KT 35/00 A2962 RMK A01 T035300-0  RH  011%=      5-min Rain = 0
KCA2 280326Z 12010KT 35/M00 A2962 RMK A01 T03541001  RH  011%=      5-min Rain = 0
KCA2 280327Z 13011KT 36/M00 A2962 RMK A01 T03551001  RH  010%=      5-min Rain = 0
KCA2 280328Z 14014KT 36/05 A2962 RMK A01 T03550050  RH  015%=      5-min Rain = 0
KCA2 280329Z 13015G20KT 36/09 A2962 RMK A01 T03550085  RH  019%=      5-min Rain = 0
KCA2 280330Z 12015G22KT 36/12 A2962 RMK A01 T03550116  RH  024%=      5-min Rain = 0
KCA2 280331Z 12019KT 36/13 A2962 RMK A01 T03550133  RH  026%=      5-min Rain = 0
KCA2 280332Z 11020G27KT 36/14 A2962 RMK A01 T03570139  RH  027%=      5-min Rain = 0
KCA2 280333Z 12021G28KT 36/15 A2962 RMK A01 T03570148  RH  029%=      5-min Rain = 0
KCA2 280334Z 12015KT 36/15 A2962 RMK A01 T03570150  RH  029%=      5-min Rain = 0
KCA2 280335Z 12016G21KT 36/15 A2962 RMK A01 T03570150  RH  029%=      5-min Rain = 0
KCA2 280336Z 13015G21KT 36/15 A2962 RMK A01 T03570151  RH  029%=      5-min Rain = 0
KCA2 280337Z 13016KT 36/15 A2962 RMK A01 T03560150  RH  029%=      5-min Rain = 0
KCA2 280338Z 14015KT 36/15 A2963 RMK A01 T03550151  RH  030%=      5-min Rain = 0
KCA2 280339Z 13016KT 36/15 A2963 RMK A01 T03550151  RH  030%=      5-min Rain = 0
KCA2 280340Z 13012KT 35/15 A2963 RMK A01 T03540152  RH  030%=      5-min Rain = 0
KCA2 280341Z 13014G19KT 35/15 A2963 RMK A01 T03530152  RH  030%=      5-min Rain = 0
KCA2 280342Z 12014KT 35/15 A2963 RMK A01 T03530154  RH  031%=      5-min Rain = 0
KCA2 280343Z 12014KT 35/16 A2963 RMK A01 T03520155  RH  031%=      5-min Rain = 0
KCA2 280344Z 12014KT 35/16 A2963 RMK A01 T03530157  RH  031%=      5-min Rain = 0
KCA2 280345Z 12016KT 35/16 A2963 RMK A01 T03520159  RH  032%=      5-min Rain = 0
KCA2 280346Z 13016KT 35/16 A2963 RMK A01 T03520160  RH  032%=      5-min Rain = 0
KCA2 280347Z 12015G22KT 35/16 A2963 RMK A01 T03520161  RH  032%=      5-min Rain = 0
KCA2 280348Z 12017KT 35/16 A2963 RMK A01 T03510162  RH  032%=      5-min Rain = 0
KCA2 280349Z 13017KT 35/16 A2963 RMK A01 T03510163  RH  033%=      5-min Rain = 0
KCA2 280350Z 12016KT 35/16 A2964 RMK A01 T03510163  RH  033%=      5-min Rain = 0
KCA2 280351Z 13014KT 35/16 A2964 RMK A01 T03500164  RH  033%=      5-min Rain = 0
KCA2 280352Z 13014KT 35/16 A2964 RMK A01 T03500164  RH  033%=      5-min Rain = 0
KCA2 280353Z 12015KT 35/17 A2964 RMK A01 T03490165  RH  033%=      5-min Rain = 0
KCA2 280354Z 12018KT 35/17 A2964 RMK A01 T03490165  RH  034%=      5-min Rain = 0
KCA2 280355Z 12018KT 35/17 A2964 RMK A01 T03490166  RH  034%=      5-min Rain = 0
KCA2 280356Z 13015KT 35/17 A2964 RMK A01 T03490167  RH  034%=      5-min Rain = 0
KCA2 280357Z 12013KT 35/17 A2964 RMK A01 T03480166  RH  034%=      5-min Rain = 0
KCA2 280358Z 13012KT 35/17 A2964 RMK A01 T03480166  RH  034%=      5-min Rain = 0
KCA2 280359Z 12013KT 35/17 A2965 RMK A01 T03480166  RH  034%=      5-min Rain = 0
KCA2 280400Z 12012KT 35/17 A2965 RMK A01 T03470166  RH  034%=      5-min Rain = 0
KCA2 280401Z 13013KT 35/17 A2965 RMK A01 T03470166  RH  034%=      5-min Rain = 0
KCA2 280402Z 13013KT 35/17 A2965 RMK A01 T03470166  RH  034%=      5-min Rain = 0
KCA2 280403Z 13014KT 35/17 A2965 RMK A01 T03470166  RH  034%=      5-min Rain = 0
KCA2 280404Z 13014KT 35/17 A2965 RMK A01 T03460166  RH  034%=      5-min Rain = 0
KCA2 280405Z 13013KT 35/17 A2965 RMK A01 T03460167  RH  034%=      5-min Rain = 0
KCA2 280406Z 12011KT 35/17 A2965 RMK A01 T03460167  RH  034%=      5-min Rain = 0
KCA2 280407Z 13015KT 35/17 A2965 RMK A01 T03450166  RH  034%=      5-min Rain = 0
KCA2 280408Z 12015KT 35/17 A2965 RMK A01 T03450166  RH  034%=      5-min Rain = 0
KCA2 280409Z 13013KT 35/17 A2965 RMK A01 T03460166  RH  034%=      5-min Rain = 0
KCA2 280410Z 13013KT 35/17 A2965 RMK A01 T03450165  RH  034%=      5-min Rain = 0
KCA2 280411Z 12013KT 35/17 A2965 RMK A01 T03450165  RH  034%=      5-min Rain = 0
KCA2 280412Z 13012KT 34/17 A2965 RMK A01 T03440165  RH  034%=      5-min Rain = 0
KCA2 280413Z 12015KT 34/17 A2965 RMK A01 T03440166  RH  035%=      5-min Rain = 0
KCA2 280414Z 13012KT 34/17 A2965 RMK A01 T03430166  RH  035%=      5-min Rain = 0
KCA2 280415Z 12015G20KT 34/17 A2965 RMK A01 T03440167  RH  035%=      5-min Rain = 0
KCA2 280416Z 13017KT 34/17 A2965 RMK A01 T03430166  RH  035%=      5-min Rain = 0
KCA2 280417Z 13013KT 34/17 A2965 RMK A01 T03440166  RH  035%=      5-min Rain = 0
KCA2 280418Z 13012KT 34/17 A2965 RMK A01 T03430167  RH  035%=      5-min Rain = 0
KCA2 280419Z 12015KT 34/17 A2965 RMK A01 T03430167  RH  035%=      5-min Rain = 0
KCA2 280420Z 12014KT 34/17 A2965 RMK A01 T03420168  RH  036%=      5-min Rain = 0
KCA2 280421Z 11015G20KT 34/17 A2965 RMK A01 T03420168  RH  036%=      5-min Rain = 0
KCA2 280422Z 12013KT 34/17 A2965 RMK A01 T03420169  RH  036%=      5-min Rain = 0
KCA2 280423Z 12014KT 34/17 A2965 RMK A01 T03420169  RH  036%=      5-min Rain = 0
KCA2 280424Z 11012KT 34/17 A2965 RMK A01 T03410168  RH  036%=      5-min Rain = 0
KCA2 280425Z 12011KT 34/17 A2965 RMK A01 T03410168  RH  036%=      5-min Rain = 0
KCA2 280426Z 12014G20KT 34/17 A2964 RMK A01 T03410168  RH  036%=      5-min Rain = 0
KCA2 280427Z 13012KT 34/17 A2964 RMK A01 T03410168  RH  036%=      5-min Rain = 0
KCA2 280428Z 13017KT 34/17 A2964 RMK A01 T03400167  RH  036%=      5-min Rain = 0
KCA2 280429Z 13017KT 34/17 A2965 RMK A01 T03400167  RH  036%=      5-min Rain = 0
KCA2 280430Z 12017KT 34/17 A2965 RMK A01 T03400167  RH  036%=      5-min Rain = 0
KCA2 280431Z 13015KT 34/17 A2964 RMK A01 T03400166  RH  035%=      5-min Rain = 0
KCA2 280432Z 13020G25KT 34/17 A2964 RMK A01 T03400166  RH  035%=      5-min Rain = 0
KCA2 280433Z 13017G24KT 34/16 A2964 RMK A01 T03400164  RH  035%=      5-min Rain = 0
KCA2 280434Z 13019KT 34/16 A2964 RMK A01 T03400164  RH  035%=      5-min Rain = 0
KCA2 280435Z 13019KT 34/16 A2964 RMK A01 T03400164  RH  035%=      5-min Rain = 0
KCA2 280436Z 13015KT 34/16 A2964 RMK A01 T03400164  RH  035%=      5-min Rain = 0
KCA2 280437Z 12017G22KT 34/17 A2964 RMK A01 T03390165  RH  035%=      5-min Rain = 0
KCA2 280438Z 11016KT 34/17 A2964 RMK A01 T03400166  RH  035%=      5-min Rain = 0
KCA2 280439Z 12018KT 34/17 A2964 RMK A01 T03390166  RH  036%=      5-min Rain = 0
KCA2 280440Z 11015KT 34/17 A2964 RMK A01 T03390165  RH  036%=      5-min Rain = 0
KCA2 280441Z 11019G24KT 34/17 A2964 RMK A01 T03380165  RH  036%=      5-min Rain = 0
KCA2 280442Z 11018G23KT 34/16 A2964 RMK A01 T03380164  RH  035%=      5-min Rain = 0
KCA2 280443Z 11021G27KT 34/16 A2964 RMK A01 T03380163  RH  035%=      5-min Rain = 0
KCA2 280444Z 12022KT 34/16 A2964 RMK A01 T03380164  RH  035%=      5-min Rain = 0
KCA2 280445Z 12019KT 34/16 A2965 RMK A01 T03380163  RH  035%=      5-min Rain = 0
KCA2 280446Z 11013KT 34/16 A2965 RMK A01 T03380163  RH  035%=      5-min Rain = 0
KCA2 280447Z 12013KT 34/16 A2965 RMK A01 T03380163  RH  035%=      5-min Rain = 0
KCA2 280448Z 11009G14KT 34/16 A2965 RMK A01 T03380163  RH  035%=      5-min Rain = 0
KCA2 280449Z 12008KT 34/16 A2965 RMK A01 T03370163  RH  035%=      5-min Rain = 0
KCA2 280450Z 13010KT 34/16 A2965 RMK A01 T03360163  RH  036%=      5-min Rain = 0
KCA2 280451Z 13012G17KT 34/16 A2965 RMK A01 T03360163  RH  036%=      5-min Rain = 0
KCA2 280452Z 12013KT 34/16 A2965 RMK A01 T03360164  RH  036%=      5-min Rain = 0
KCA2 280453Z 12016G21KT 34/16 A2965 RMK A01 T03360164  RH  036%=      5-min Rain = 0
KCA2 280454Z 12016G22KT 34/16 A2964 RMK A01 T03360164  RH  036%=      5-min Rain = 0
KCA2 280455Z 12017G22KT 34/16 A2964 RMK A01 T03360164  RH  036%=      5-min Rain = 0
KCA2 280456Z 12019KT 34/16 A2964 RMK A01 T03360164  RH  036%=      5-min Rain = 0
KCA2 280457Z 12021KT 34/16 A2964 RMK A01 T03360164  RH  036%=      5-min Rain = 0
KCA2 280458Z 12019G24KT 34/17 A2964 RMK A01 T03360165  RH  036%=      5-min Rain = 0
KCA2 280459Z 12017KT 34/17 A2964 RMK A01 T03350165  RH  036%=      5-min Rain = 0

Page generated in 0.0773 seconds.